<?xml version="1.0" encoding="UTF-8" standalone="no" ?>
<gpx xmlns="http://www.topografix.com/GPX/1/1" xmlns:xsi="http://www.w3.org/2001/XMLSchema-instance" xsi:schemaLocation="http://www.topografix.com/GPX/1/1 http://www.topografix.com/GPX/1/1/gpx.xsd" version="1.1" creator="VisuGPX - https://www.visugpx.com">
  <metadata>
    <name>Engayrac 9.7 km</name>
  </metadata>
  <trk>
    <name><![CDATA[2025 11 20 Engayrac Pierre 9]]></name>
    <extensions>
      <line xmlns="http://www.topografix.com/GPX/gpx_style/0/2">
        <color>0000FF</color>
        <width>4</width>
      </line>
    </extensions>
    <trkseg>
      <trkpt lat="44.25899" lon="0.88574">
        <ele>216</ele>
        <time>2025-11-20T13:13:32.093Z</time>
      </trkpt>
      <trkpt lat="44.25904" lon="0.88571">
        <ele>216</ele>
        <time>2025-11-20T13:13:42.093Z</time>
      </trkpt>
      <trkpt lat="44.25905" lon="0.88563">
        <ele>216</ele>
        <time>2025-11-20T13:13:50.093Z</time>
      </trkpt>
      <trkpt lat="44.25904" lon="0.88551">
        <ele>216</ele>
        <time>2025-11-20T13:13:58.093Z</time>
      </trkpt>
      <trkpt lat="44.25899" lon="0.88531">
        <ele>216</ele>
        <time>2025-11-20T13:14:12.093Z</time>
      </trkpt>
      <trkpt lat="44.25898" lon="0.88529">
        <ele>216</ele>
        <time>2025-11-20T13:14:14.093Z</time>
      </trkpt>
      <trkpt lat="44.25899" lon="0.88522">
        <ele>216</ele>
        <time>2025-11-20T13:14:22.093Z</time>
      </trkpt>
      <trkpt lat="44.25901" lon="0.88518">
        <ele>216</ele>
        <time>2025-11-20T13:14:26.093Z</time>
      </trkpt>
      <trkpt lat="44.25902" lon="0.88517">
        <ele>216</ele>
        <time>2025-11-20T13:14:28.093Z</time>
      </trkpt>
      <trkpt lat="44.2591" lon="0.88516">
        <ele>216</ele>
        <time>2025-11-20T13:14:36.093Z</time>
      </trkpt>
      <trkpt lat="44.25918" lon="0.88512">
        <ele>215.9</ele>
        <time>2025-11-20T13:14:43.108Z</time>
      </trkpt>
      <trkpt lat="44.25924" lon="0.88509">
        <ele>215.6</ele>
        <time>2025-11-20T13:14:49.108Z</time>
      </trkpt>
      <trkpt lat="44.25943" lon="0.88503">
        <ele>214.2</ele>
        <time>2025-11-20T13:15:05.108Z</time>
      </trkpt>
      <trkpt lat="44.25951" lon="0.88498">
        <ele>213.4</ele>
        <time>2025-11-20T13:15:13.108Z</time>
      </trkpt>
      <trkpt lat="44.25968" lon="0.88492">
        <ele>211.8</ele>
        <time>2025-11-20T13:15:25.108Z</time>
      </trkpt>
      <trkpt lat="44.25976" lon="0.88491">
        <ele>211</ele>
        <time>2025-11-20T13:15:31.108Z</time>
      </trkpt>
      <trkpt lat="44.25979" lon="0.88492">
        <ele>210.8</ele>
        <time>2025-11-20T13:15:33.109Z</time>
      </trkpt>
      <trkpt lat="44.25981" lon="0.88494">
        <ele>210.7</ele>
        <time>2025-11-20T13:15:35.108Z</time>
      </trkpt>
      <trkpt lat="44.25983" lon="0.88498">
        <ele>210.7</ele>
        <time>2025-11-20T13:15:37.108Z</time>
      </trkpt>
      <trkpt lat="44.25988" lon="0.88503">
        <ele>210.4</ele>
        <time>2025-11-20T13:15:41.108Z</time>
      </trkpt>
      <trkpt lat="44.26003" lon="0.88528">
        <ele>210.9</ele>
        <time>2025-11-20T13:15:59.108Z</time>
      </trkpt>
      <trkpt lat="44.26012" lon="0.88535">
        <ele>211.4</ele>
        <time>2025-11-20T13:16:07.108Z</time>
      </trkpt>
      <trkpt lat="44.26021" lon="0.8854">
        <ele>211.9</ele>
        <time>2025-11-20T13:16:15.108Z</time>
      </trkpt>
      <trkpt lat="44.26031" lon="0.88543">
        <ele>212.2</ele>
        <time>2025-11-20T13:16:23.108Z</time>
      </trkpt>
      <trkpt lat="44.26037" lon="0.88547">
        <ele>212.8</ele>
        <time>2025-11-20T13:16:29.108Z</time>
      </trkpt>
      <trkpt lat="44.26039" lon="0.88547">
        <ele>212.9</ele>
        <time>2025-11-20T13:16:31.108Z</time>
      </trkpt>
      <trkpt lat="44.26045" lon="0.88547">
        <ele>212.9</ele>
        <time>2025-11-20T13:16:51.108Z</time>
      </trkpt>
      <trkpt lat="44.26049" lon="0.88547">
        <ele>212.9</ele>
        <time>2025-11-20T13:16:55.108Z</time>
      </trkpt>
      <trkpt lat="44.26064" lon="0.88541">
        <ele>212.9</ele>
        <time>2025-11-20T13:17:07.108Z</time>
      </trkpt>
      <trkpt lat="44.26074" lon="0.88535">
        <ele>212.9</ele>
        <time>2025-11-20T13:17:15.108Z</time>
      </trkpt>
      <trkpt lat="44.26083" lon="0.88527">
        <ele>212.9</ele>
        <time>2025-11-20T13:17:23.108Z</time>
      </trkpt>
      <trkpt lat="44.26093" lon="0.88521">
        <ele>212.7</ele>
        <time>2025-11-20T13:17:31.108Z</time>
      </trkpt>
      <trkpt lat="44.26102" lon="0.88512">
        <ele>212.3</ele>
        <time>2025-11-20T13:17:39.108Z</time>
      </trkpt>
      <trkpt lat="44.26111" lon="0.88506">
        <ele>212.4</ele>
        <time>2025-11-20T13:17:46.108Z</time>
      </trkpt>
      <trkpt lat="44.26121" lon="0.88497">
        <ele>212</ele>
        <time>2025-11-20T13:17:54.108Z</time>
      </trkpt>
      <trkpt lat="44.26131" lon="0.8849">
        <ele>211.4</ele>
        <time>2025-11-20T13:18:02.108Z</time>
      </trkpt>
      <trkpt lat="44.26141" lon="0.88485">
        <ele>210.8</ele>
        <time>2025-11-20T13:18:10.108Z</time>
      </trkpt>
      <trkpt lat="44.26157" lon="0.88482">
        <ele>209.5</ele>
        <time>2025-11-20T13:18:22.108Z</time>
      </trkpt>
      <trkpt lat="44.26161" lon="0.88482">
        <ele>209.3</ele>
        <time>2025-11-20T13:18:26.108Z</time>
      </trkpt>
      <trkpt lat="44.26172" lon="0.88481">
        <ele>208.7</ele>
        <time>2025-11-20T13:18:34.108Z</time>
      </trkpt>
      <trkpt lat="44.26218" lon="0.88492">
        <ele>206.6</ele>
        <time>2025-11-20T13:19:10.108Z</time>
      </trkpt>
      <trkpt lat="44.26225" lon="0.88492">
        <ele>206.1</ele>
        <time>2025-11-20T13:19:16.108Z</time>
      </trkpt>
      <trkpt lat="44.26236" lon="0.88495">
        <ele>205.2</ele>
        <time>2025-11-20T13:19:24.108Z</time>
      </trkpt>
      <trkpt lat="44.26245" lon="0.885">
        <ele>204.4</ele>
        <time>2025-11-20T13:19:32.108Z</time>
      </trkpt>
      <trkpt lat="44.26256" lon="0.88502">
        <ele>203.8</ele>
        <time>2025-11-20T13:19:40.108Z</time>
      </trkpt>
      <trkpt lat="44.26286" lon="0.88507">
        <ele>202.8</ele>
        <time>2025-11-20T13:20:04.108Z</time>
      </trkpt>
      <trkpt lat="44.26292" lon="0.88506">
        <ele>202.6</ele>
        <time>2025-11-20T13:20:08.108Z</time>
      </trkpt>
      <trkpt lat="44.26313" lon="0.8851">
        <ele>202.6</ele>
        <time>2025-11-20T13:20:24.108Z</time>
      </trkpt>
      <trkpt lat="44.26323" lon="0.88513">
        <ele>203.1</ele>
        <time>2025-11-20T13:20:32.108Z</time>
      </trkpt>
      <trkpt lat="44.26351" lon="0.88527">
        <ele>205.2</ele>
        <time>2025-11-20T13:20:56.108Z</time>
      </trkpt>
      <trkpt lat="44.2638" lon="0.88534">
        <ele>207.6</ele>
        <time>2025-11-20T13:21:20.108Z</time>
      </trkpt>
      <trkpt lat="44.26385" lon="0.88536">
        <ele>208</ele>
        <time>2025-11-20T13:21:24.108Z</time>
      </trkpt>
      <trkpt lat="44.26401" lon="0.88538">
        <ele>207.6</ele>
        <time>2025-11-20T13:21:38.108Z</time>
      </trkpt>
      <trkpt lat="44.26406" lon="0.88537">
        <ele>207.3</ele>
        <time>2025-11-20T13:21:56.108Z</time>
      </trkpt>
      <trkpt lat="44.26418" lon="0.88535">
        <ele>206.6</ele>
        <time>2025-11-20T13:22:08.108Z</time>
      </trkpt>
      <trkpt lat="44.26451" lon="0.88522">
        <ele>203.5</ele>
        <time>2025-11-20T13:22:32.108Z</time>
      </trkpt>
      <trkpt lat="44.26461" lon="0.88517">
        <ele>202.8</ele>
        <time>2025-11-20T13:22:40.108Z</time>
      </trkpt>
      <trkpt lat="44.26473" lon="0.88514">
        <ele>202</ele>
        <time>2025-11-20T13:22:48.108Z</time>
      </trkpt>
      <trkpt lat="44.26476" lon="0.88515">
        <ele>201.6</ele>
        <time>2025-11-20T13:22:52.108Z</time>
      </trkpt>
      <trkpt lat="44.26486" lon="0.88513">
        <ele>200.9</ele>
        <time>2025-11-20T13:23:00.108Z</time>
      </trkpt>
      <trkpt lat="44.26511" lon="0.88505">
        <ele>198.8</ele>
        <time>2025-11-20T13:23:20.108Z</time>
      </trkpt>
      <trkpt lat="44.26517" lon="0.88503">
        <ele>198.2</ele>
        <time>2025-11-20T13:23:26.108Z</time>
      </trkpt>
      <trkpt lat="44.26527" lon="0.88501">
        <ele>197.1</ele>
        <time>2025-11-20T13:23:34.108Z</time>
      </trkpt>
      <trkpt lat="44.2653" lon="0.88498">
        <ele>196.9</ele>
        <time>2025-11-20T13:23:38.108Z</time>
      </trkpt>
      <trkpt lat="44.26535" lon="0.88497">
        <ele>196.7</ele>
        <time>2025-11-20T13:23:42.108Z</time>
      </trkpt>
      <trkpt lat="44.26545" lon="0.88493">
        <ele>196.2</ele>
        <time>2025-11-20T13:23:50.108Z</time>
      </trkpt>
      <trkpt lat="44.2655" lon="0.88492">
        <ele>196</ele>
        <time>2025-11-20T13:23:54.108Z</time>
      </trkpt>
      <trkpt lat="44.26555" lon="0.8849">
        <ele>195.7</ele>
        <time>2025-11-20T13:23:58.108Z</time>
      </trkpt>
      <trkpt lat="44.26558" lon="0.88487">
        <ele>195.5</ele>
        <time>2025-11-20T13:24:02.108Z</time>
      </trkpt>
      <trkpt lat="44.26561" lon="0.88487">
        <ele>195.4</ele>
        <time>2025-11-20T13:24:06.109Z</time>
      </trkpt>
      <trkpt lat="44.26564" lon="0.88487">
        <ele>195.2</ele>
        <time>2025-11-20T13:24:26.108Z</time>
      </trkpt>
      <trkpt lat="44.26566" lon="0.88488">
        <ele>195.2</ele>
        <time>2025-11-20T13:25:02.108Z</time>
      </trkpt>
      <trkpt lat="44.26585" lon="0.88487">
        <ele>194.7</ele>
        <time>2025-11-20T13:25:18.108Z</time>
      </trkpt>
      <trkpt lat="44.26591" lon="0.88488">
        <ele>195.5</ele>
        <time>2025-11-20T13:25:22.108Z</time>
      </trkpt>
      <trkpt lat="44.26597" lon="0.88491">
        <ele>196.3</ele>
        <time>2025-11-20T13:25:26.108Z</time>
      </trkpt>
      <trkpt lat="44.26602" lon="0.88495">
        <ele>197</ele>
        <time>2025-11-20T13:25:30.108Z</time>
      </trkpt>
      <trkpt lat="44.26619" lon="0.88516">
        <ele>198.7</ele>
        <time>2025-11-20T13:25:46.108Z</time>
      </trkpt>
      <trkpt lat="44.26631" lon="0.88533">
        <ele>199.2</ele>
        <time>2025-11-20T13:25:58.108Z</time>
      </trkpt>
      <trkpt lat="44.26637" lon="0.88545">
        <ele>199.6</ele>
        <time>2025-11-20T13:26:06.108Z</time>
      </trkpt>
      <trkpt lat="44.26639" lon="0.88551">
        <ele>199.8</ele>
        <time>2025-11-20T13:26:10.108Z</time>
      </trkpt>
      <trkpt lat="44.26644" lon="0.88563">
        <ele>198.5</ele>
        <time>2025-11-20T13:26:18.108Z</time>
      </trkpt>
      <trkpt lat="44.2665" lon="0.88576">
        <ele>196.9</ele>
        <time>2025-11-20T13:26:26.108Z</time>
      </trkpt>
      <trkpt lat="44.26653" lon="0.88589">
        <ele>196.3</ele>
        <time>2025-11-20T13:26:34.108Z</time>
      </trkpt>
      <trkpt lat="44.26663" lon="0.88606">
        <ele>194.6</ele>
        <time>2025-11-20T13:26:46.108Z</time>
      </trkpt>
      <trkpt lat="44.26676" lon="0.88647">
        <ele>189.9</ele>
        <time>2025-11-20T13:27:19.108Z</time>
      </trkpt>
      <trkpt lat="44.26683" lon="0.88656">
        <ele>187.2</ele>
        <time>2025-11-20T13:27:27.108Z</time>
      </trkpt>
      <trkpt lat="44.26689" lon="0.88666">
        <ele>185.3</ele>
        <time>2025-11-20T13:27:35.108Z</time>
      </trkpt>
      <trkpt lat="44.26693" lon="0.88675">
        <ele>184.1</ele>
        <time>2025-11-20T13:27:43.108Z</time>
      </trkpt>
      <trkpt lat="44.26694" lon="0.88683">
        <ele>183.7</ele>
        <time>2025-11-20T13:27:51.108Z</time>
      </trkpt>
      <trkpt lat="44.26696" lon="0.88687">
        <ele>183.3</ele>
        <time>2025-11-20T13:27:55.108Z</time>
      </trkpt>
      <trkpt lat="44.267" lon="0.88693">
        <ele>182.2</ele>
        <time>2025-11-20T13:28:03.108Z</time>
      </trkpt>
      <trkpt lat="44.267" lon="0.88688">
        <ele>182</ele>
        <time>2025-11-20T13:28:19.108Z</time>
      </trkpt>
      <trkpt lat="44.26702" lon="0.88682">
        <ele>181.4</ele>
        <time>2025-11-20T13:28:33.108Z</time>
      </trkpt>
      <trkpt lat="44.26703" lon="0.88676">
        <ele>180.7</ele>
        <time>2025-11-20T13:28:41.108Z</time>
      </trkpt>
      <trkpt lat="44.26702" lon="0.88674">
        <ele>180.8</ele>
        <time>2025-11-20T13:28:43.108Z</time>
      </trkpt>
      <trkpt lat="44.26708" lon="0.88651">
        <ele>177.7</ele>
        <time>2025-11-20T13:29:03.108Z</time>
      </trkpt>
      <trkpt lat="44.2671" lon="0.88649">
        <ele>177.1</ele>
        <time>2025-11-20T13:29:05.108Z</time>
      </trkpt>
      <trkpt lat="44.26711" lon="0.88641">
        <ele>176.2</ele>
        <time>2025-11-20T13:29:13.108Z</time>
      </trkpt>
      <trkpt lat="44.26712" lon="0.88634">
        <ele>175.8</ele>
        <time>2025-11-20T13:29:17.108Z</time>
      </trkpt>
      <trkpt lat="44.26711" lon="0.88627">
        <ele>175.9</ele>
        <time>2025-11-20T13:29:25.108Z</time>
      </trkpt>
      <trkpt lat="44.26713" lon="0.88617">
        <ele>174.8</ele>
        <time>2025-11-20T13:29:33.108Z</time>
      </trkpt>
      <trkpt lat="44.26713" lon="0.8861">
        <ele>174.7</ele>
        <time>2025-11-20T13:29:37.108Z</time>
      </trkpt>
      <trkpt lat="44.26716" lon="0.88594">
        <ele>173.7</ele>
        <time>2025-11-20T13:29:45.108Z</time>
      </trkpt>
      <trkpt lat="44.26715" lon="0.88569">
        <ele>173.6</ele>
        <time>2025-11-20T13:29:59.108Z</time>
      </trkpt>
      <trkpt lat="44.26719" lon="0.88547">
        <ele>171.8</ele>
        <time>2025-11-20T13:30:11.109Z</time>
      </trkpt>
      <trkpt lat="44.26723" lon="0.88534">
        <ele>170.1</ele>
        <time>2025-11-20T13:30:16.108Z</time>
      </trkpt>
      <trkpt lat="44.26727" lon="0.88529">
        <ele>169</ele>
        <time>2025-11-20T13:30:18.108Z</time>
      </trkpt>
      <trkpt lat="44.26729" lon="0.88525">
        <ele>168.2</ele>
        <time>2025-11-20T13:30:20.108Z</time>
      </trkpt>
      <trkpt lat="44.26731" lon="0.88519">
        <ele>167.4</ele>
        <time>2025-11-20T13:30:31.108Z</time>
      </trkpt>
      <trkpt lat="44.26743" lon="0.88494">
        <ele>162.6</ele>
        <time>2025-11-20T13:31:19.108Z</time>
      </trkpt>
      <trkpt lat="44.26747" lon="0.88489">
        <ele>161.2</ele>
        <time>2025-11-20T13:31:27.108Z</time>
      </trkpt>
      <trkpt lat="44.26749" lon="0.88483">
        <ele>160.1</ele>
        <time>2025-11-20T13:31:43.108Z</time>
      </trkpt>
      <trkpt lat="44.26753" lon="0.88479">
        <ele>159.2</ele>
        <time>2025-11-20T13:31:51.117Z</time>
      </trkpt>
      <trkpt lat="44.26762" lon="0.88465">
        <ele>156.8</ele>
        <time>2025-11-20T13:32:03.109Z</time>
      </trkpt>
      <trkpt lat="44.26767" lon="0.88462">
        <ele>155.7</ele>
        <time>2025-11-20T13:32:11.108Z</time>
      </trkpt>
      <trkpt lat="44.26772" lon="0.88457">
        <ele>154.5</ele>
        <time>2025-11-20T13:32:15.108Z</time>
      </trkpt>
      <trkpt lat="44.26775" lon="0.88456">
        <ele>154</ele>
        <time>2025-11-20T13:32:17.108Z</time>
      </trkpt>
      <trkpt lat="44.26776" lon="0.88456">
        <ele>153.9</ele>
        <time>2025-11-20T13:32:21.108Z</time>
      </trkpt>
      <trkpt lat="44.26782" lon="0.88453">
        <ele>153.4</ele>
        <time>2025-11-20T13:32:29.108Z</time>
      </trkpt>
      <trkpt lat="44.26787" lon="0.8845">
        <ele>153.3</ele>
        <time>2025-11-20T13:32:33.108Z</time>
      </trkpt>
      <trkpt lat="44.26791" lon="0.88447">
        <ele>153</ele>
        <time>2025-11-20T13:32:37.108Z</time>
      </trkpt>
      <trkpt lat="44.26794" lon="0.88447">
        <ele>153.1</ele>
        <time>2025-11-20T13:32:40.108Z</time>
      </trkpt>
      <trkpt lat="44.26798" lon="0.88448">
        <ele>153.4</ele>
        <time>2025-11-20T13:32:45.108Z</time>
      </trkpt>
      <trkpt lat="44.26803" lon="0.88448">
        <ele>153.7</ele>
        <time>2025-11-20T13:32:49.108Z</time>
      </trkpt>
      <trkpt lat="44.26819" lon="0.88443">
        <ele>154.8</ele>
        <time>2025-11-20T13:33:05.108Z</time>
      </trkpt>
      <trkpt lat="44.2682" lon="0.88443">
        <ele>155</ele>
        <time>2025-11-20T13:33:21.108Z</time>
      </trkpt>
      <trkpt lat="44.26823" lon="0.88438">
        <ele>155.3</ele>
        <time>2025-11-20T13:33:37.108Z</time>
      </trkpt>
      <trkpt lat="44.26826" lon="0.88438">
        <ele>155.6</ele>
        <time>2025-11-20T13:33:39.109Z</time>
      </trkpt>
      <trkpt lat="44.2683" lon="0.88436">
        <ele>156.1</ele>
        <time>2025-11-20T13:33:43.108Z</time>
      </trkpt>
      <trkpt lat="44.26838" lon="0.88433">
        <ele>157.9</ele>
        <time>2025-11-20T13:33:51.108Z</time>
      </trkpt>
      <trkpt lat="44.2685" lon="0.88432">
        <ele>162.2</ele>
        <time>2025-11-20T13:34:09.108Z</time>
      </trkpt>
      <trkpt lat="44.26866" lon="0.88447">
        <ele>166.2</ele>
        <time>2025-11-20T13:34:37.108Z</time>
      </trkpt>
      <trkpt lat="44.26869" lon="0.88458">
        <ele>166.4</ele>
        <time>2025-11-20T13:34:49.108Z</time>
      </trkpt>
      <trkpt lat="44.26873" lon="0.88462">
        <ele>167.9</ele>
        <time>2025-11-20T13:34:57.109Z</time>
      </trkpt>
      <trkpt lat="44.26878" lon="0.88467">
        <ele>169.6</ele>
        <time>2025-11-20T13:35:05.108Z</time>
      </trkpt>
      <trkpt lat="44.26885" lon="0.8847">
        <ele>172.7</ele>
        <time>2025-11-20T13:35:13.108Z</time>
      </trkpt>
      <trkpt lat="44.26888" lon="0.88473">
        <ele>173.4</ele>
        <time>2025-11-20T13:35:17.108Z</time>
      </trkpt>
      <trkpt lat="44.26892" lon="0.88472">
        <ele>176.2</ele>
        <time>2025-11-20T13:35:20.108Z</time>
      </trkpt>
      <trkpt lat="44.26897" lon="0.88479">
        <ele>177.7</ele>
        <time>2025-11-20T13:35:28.108Z</time>
      </trkpt>
      <trkpt lat="44.26897" lon="0.88484">
        <ele>176.8</ele>
        <time>2025-11-20T13:35:32.108Z</time>
      </trkpt>
      <trkpt lat="44.26898" lon="0.88489">
        <ele>176.6</ele>
        <time>2025-11-20T13:35:36.108Z</time>
      </trkpt>
      <trkpt lat="44.26905" lon="0.88497">
        <ele>178.8</ele>
        <time>2025-11-20T13:35:46.108Z</time>
      </trkpt>
      <trkpt lat="44.26906" lon="0.88508">
        <ele>176.9</ele>
        <time>2025-11-20T13:35:54.108Z</time>
      </trkpt>
      <trkpt lat="44.26909" lon="0.88509">
        <ele>177.8</ele>
        <time>2025-11-20T13:35:56.108Z</time>
      </trkpt>
      <trkpt lat="44.26909" lon="0.88512">
        <ele>177</ele>
        <time>2025-11-20T13:35:58.108Z</time>
      </trkpt>
      <trkpt lat="44.26911" lon="0.88514">
        <ele>177.4</ele>
        <time>2025-11-20T13:36:00.108Z</time>
      </trkpt>
      <trkpt lat="44.26912" lon="0.88521">
        <ele>176</ele>
        <time>2025-11-20T13:36:06.108Z</time>
      </trkpt>
      <trkpt lat="44.26916" lon="0.88524">
        <ele>176.6</ele>
        <time>2025-11-20T13:36:10.108Z</time>
      </trkpt>
      <trkpt lat="44.26917" lon="0.88531">
        <ele>175.3</ele>
        <time>2025-11-20T13:36:16.108Z</time>
      </trkpt>
      <trkpt lat="44.26919" lon="0.88533">
        <ele>175.5</ele>
        <time>2025-11-20T13:36:19.108Z</time>
      </trkpt>
      <trkpt lat="44.26919" lon="0.88537">
        <ele>174.5</ele>
        <time>2025-11-20T13:36:23.108Z</time>
      </trkpt>
      <trkpt lat="44.26926" lon="0.88548">
        <ele>173.2</ele>
        <time>2025-11-20T13:36:35.108Z</time>
      </trkpt>
      <trkpt lat="44.26929" lon="0.88551">
        <ele>172.9</ele>
        <time>2025-11-20T13:36:39.108Z</time>
      </trkpt>
      <trkpt lat="44.26933" lon="0.88558">
        <ele>172.2</ele>
        <time>2025-11-20T13:36:47.108Z</time>
      </trkpt>
      <trkpt lat="44.26935" lon="0.88568">
        <ele>171.5</ele>
        <time>2025-11-20T13:36:55.108Z</time>
      </trkpt>
      <trkpt lat="44.26937" lon="0.88577">
        <ele>171.3</ele>
        <time>2025-11-20T13:36:59.108Z</time>
      </trkpt>
      <trkpt lat="44.26938" lon="0.88586">
        <ele>171.2</ele>
        <time>2025-11-20T13:37:07.108Z</time>
      </trkpt>
      <trkpt lat="44.26943" lon="0.88602">
        <ele>174.6</ele>
        <time>2025-11-20T13:37:23.108Z</time>
      </trkpt>
      <trkpt lat="44.26945" lon="0.88605">
        <ele>175.5</ele>
        <time>2025-11-20T13:37:27.108Z</time>
      </trkpt>
      <trkpt lat="44.26945" lon="0.88612">
        <ele>176.4</ele>
        <time>2025-11-20T13:37:39.108Z</time>
      </trkpt>
      <trkpt lat="44.26944" lon="0.88615">
        <ele>176.3</ele>
        <time>2025-11-20T13:37:43.108Z</time>
      </trkpt>
      <trkpt lat="44.26945" lon="0.88619">
        <ele>177.1</ele>
        <time>2025-11-20T13:37:51.108Z</time>
      </trkpt>
      <trkpt lat="44.2695" lon="0.88622">
        <ele>179.4</ele>
        <time>2025-11-20T13:38:25.108Z</time>
      </trkpt>
      <trkpt lat="44.26953" lon="0.88623">
        <ele>180.5</ele>
        <time>2025-11-20T13:38:43.108Z</time>
      </trkpt>
      <trkpt lat="44.26958" lon="0.8862">
        <ele>181.9</ele>
        <time>2025-11-20T13:38:49.109Z</time>
      </trkpt>
      <trkpt lat="44.26961" lon="0.8862">
        <ele>183</ele>
        <time>2025-11-20T13:38:53.108Z</time>
      </trkpt>
      <trkpt lat="44.26962" lon="0.88618">
        <ele>183.3</ele>
        <time>2025-11-20T13:38:55.108Z</time>
      </trkpt>
      <trkpt lat="44.26964" lon="0.88609">
        <ele>182.8</ele>
        <time>2025-11-20T13:39:03.108Z</time>
      </trkpt>
      <trkpt lat="44.26967" lon="0.88602">
        <ele>183.7</ele>
        <time>2025-11-20T13:39:11.108Z</time>
      </trkpt>
      <trkpt lat="44.26968" lon="0.88591">
        <ele>183.4</ele>
        <time>2025-11-20T13:39:19.108Z</time>
      </trkpt>
      <trkpt lat="44.26969" lon="0.88588">
        <ele>183.7</ele>
        <time>2025-11-20T13:39:23.108Z</time>
      </trkpt>
      <trkpt lat="44.26969" lon="0.88583">
        <ele>183.7</ele>
        <time>2025-11-20T13:39:27.109Z</time>
      </trkpt>
      <trkpt lat="44.26971" lon="0.88579">
        <ele>184.2</ele>
        <time>2025-11-20T13:39:31.108Z</time>
      </trkpt>
      <trkpt lat="44.26974" lon="0.88575">
        <ele>185.3</ele>
        <time>2025-11-20T13:39:37.108Z</time>
      </trkpt>
      <trkpt lat="44.26976" lon="0.88573">
        <ele>186.6</ele>
        <time>2025-11-20T13:39:41.108Z</time>
      </trkpt>
      <trkpt lat="44.26978" lon="0.88569">
        <ele>187.2</ele>
        <time>2025-11-20T13:39:45.108Z</time>
      </trkpt>
      <trkpt lat="44.26984" lon="0.88565">
        <ele>189.5</ele>
        <time>2025-11-20T13:39:53.109Z</time>
      </trkpt>
      <trkpt lat="44.26986" lon="0.88561">
        <ele>190.2</ele>
        <time>2025-11-20T13:39:57.108Z</time>
      </trkpt>
      <trkpt lat="44.26988" lon="0.88557">
        <ele>190.3</ele>
        <time>2025-11-20T13:40:03.108Z</time>
      </trkpt>
      <trkpt lat="44.2699" lon="0.88555">
        <ele>191.2</ele>
        <time>2025-11-20T13:40:07.108Z</time>
      </trkpt>
      <trkpt lat="44.26995" lon="0.88541">
        <ele>196.4</ele>
        <time>2025-11-20T13:40:27.108Z</time>
      </trkpt>
      <trkpt lat="44.26992" lon="0.88531">
        <ele>197.5</ele>
        <time>2025-11-20T13:40:43.108Z</time>
      </trkpt>
      <trkpt lat="44.26991" lon="0.88525">
        <ele>198.6</ele>
        <time>2025-11-20T13:40:51.108Z</time>
      </trkpt>
      <trkpt lat="44.26993" lon="0.88521">
        <ele>200</ele>
        <time>2025-11-20T13:40:55.108Z</time>
      </trkpt>
      <trkpt lat="44.26999" lon="0.8852">
        <ele>201.9</ele>
        <time>2025-11-20T13:40:59.108Z</time>
      </trkpt>
      <trkpt lat="44.27004" lon="0.88522">
        <ele>202.4</ele>
        <time>2025-11-20T13:41:03.108Z</time>
      </trkpt>
      <trkpt lat="44.27009" lon="0.88526">
        <ele>202.5</ele>
        <time>2025-11-20T13:41:07.108Z</time>
      </trkpt>
      <trkpt lat="44.27014" lon="0.88534">
        <ele>202.2</ele>
        <time>2025-11-20T13:41:15.108Z</time>
      </trkpt>
      <trkpt lat="44.27025" lon="0.88571">
        <ele>203.9</ele>
        <time>2025-11-20T13:41:45.108Z</time>
      </trkpt>
      <trkpt lat="44.27026" lon="0.88572">
        <ele>204.2</ele>
        <time>2025-11-20T13:41:47.108Z</time>
      </trkpt>
      <trkpt lat="44.27028" lon="0.88571">
        <ele>204.5</ele>
        <time>2025-11-20T13:41:49.108Z</time>
      </trkpt>
      <trkpt lat="44.2703" lon="0.88569">
        <ele>204.6</ele>
        <time>2025-11-20T13:41:53.108Z</time>
      </trkpt>
      <trkpt lat="44.27034" lon="0.8857">
        <ele>204.7</ele>
        <time>2025-11-20T13:41:57.108Z</time>
      </trkpt>
      <trkpt lat="44.2704" lon="0.88568">
        <ele>204.9</ele>
        <time>2025-11-20T13:42:05.108Z</time>
      </trkpt>
      <trkpt lat="44.27044" lon="0.88568">
        <ele>205</ele>
        <time>2025-11-20T13:42:09.108Z</time>
      </trkpt>
      <trkpt lat="44.27046" lon="0.88569">
        <ele>205.1</ele>
        <time>2025-11-20T13:42:17.108Z</time>
      </trkpt>
      <trkpt lat="44.27046" lon="0.88569">
        <ele>205.1</ele>
        <time>2025-11-20T13:42:21.108Z</time>
      </trkpt>
      <trkpt lat="44.27051" lon="0.88571">
        <ele>205.4</ele>
        <time>2025-11-20T13:43:25.108Z</time>
      </trkpt>
      <trkpt lat="44.2706" lon="0.88574">
        <ele>205.9</ele>
        <time>2025-11-20T13:46:19.108Z</time>
      </trkpt>
      <trkpt lat="44.27064" lon="0.88575">
        <ele>206.1</ele>
        <time>2025-11-20T13:46:23.108Z</time>
      </trkpt>
      <trkpt lat="44.27072" lon="0.88576">
        <ele>206.5</ele>
        <time>2025-11-20T13:46:31.108Z</time>
      </trkpt>
      <trkpt lat="44.27077" lon="0.88578">
        <ele>206.7</ele>
        <time>2025-11-20T13:46:35.108Z</time>
      </trkpt>
      <trkpt lat="44.27081" lon="0.88578">
        <ele>206.9</ele>
        <time>2025-11-20T13:46:39.108Z</time>
      </trkpt>
      <trkpt lat="44.27088" lon="0.8858">
        <ele>207.2</ele>
        <time>2025-11-20T13:46:47.108Z</time>
      </trkpt>
      <trkpt lat="44.27092" lon="0.8858">
        <ele>207.3</ele>
        <time>2025-11-20T13:46:51.108Z</time>
      </trkpt>
      <trkpt lat="44.27097" lon="0.88581">
        <ele>207.5</ele>
        <time>2025-11-20T13:46:55.108Z</time>
      </trkpt>
      <trkpt lat="44.27106" lon="0.88582">
        <ele>207.8</ele>
        <time>2025-11-20T13:47:03.108Z</time>
      </trkpt>
      <trkpt lat="44.27118" lon="0.88585">
        <ele>208.6</ele>
        <time>2025-11-20T13:47:15.108Z</time>
      </trkpt>
      <trkpt lat="44.27121" lon="0.88587">
        <ele>208.8</ele>
        <time>2025-11-20T13:47:19.108Z</time>
      </trkpt>
      <trkpt lat="44.27128" lon="0.88591">
        <ele>209.3</ele>
        <time>2025-11-20T13:47:39.108Z</time>
      </trkpt>
      <trkpt lat="44.27131" lon="0.8859">
        <ele>209.5</ele>
        <time>2025-11-20T13:47:43.108Z</time>
      </trkpt>
      <trkpt lat="44.27171" lon="0.88601">
        <ele>212.3</ele>
        <time>2025-11-20T13:48:19.108Z</time>
      </trkpt>
      <trkpt lat="44.27175" lon="0.88604">
        <ele>212.6</ele>
        <time>2025-11-20T13:48:23.108Z</time>
      </trkpt>
      <trkpt lat="44.27187" lon="0.8861">
        <ele>213.5</ele>
        <time>2025-11-20T13:48:35.108Z</time>
      </trkpt>
      <trkpt lat="44.27196" lon="0.88611">
        <ele>214.1</ele>
        <time>2025-11-20T13:48:43.108Z</time>
      </trkpt>
      <trkpt lat="44.27213" lon="0.88617">
        <ele>215.5</ele>
        <time>2025-11-20T13:48:59.108Z</time>
      </trkpt>
      <trkpt lat="44.27216" lon="0.88619">
        <ele>215.9</ele>
        <time>2025-11-20T13:49:03.108Z</time>
      </trkpt>
      <trkpt lat="44.27224" lon="0.88623">
        <ele>216.6</ele>
        <time>2025-11-20T13:49:39.108Z</time>
      </trkpt>
      <trkpt lat="44.27235" lon="0.88628">
        <ele>217.7</ele>
        <time>2025-11-20T13:49:51.108Z</time>
      </trkpt>
      <trkpt lat="44.27239" lon="0.88635">
        <ele>218.1</ele>
        <time>2025-11-20T13:49:57.108Z</time>
      </trkpt>
      <trkpt lat="44.27236" lon="0.88656">
        <ele>218.3</ele>
        <time>2025-11-20T13:50:13.108Z</time>
      </trkpt>
      <trkpt lat="44.27235" lon="0.88662">
        <ele>218.4</ele>
        <time>2025-11-20T13:50:17.108Z</time>
      </trkpt>
      <trkpt lat="44.27233" lon="0.88686">
        <ele>218.4</ele>
        <time>2025-11-20T13:50:33.108Z</time>
      </trkpt>
      <trkpt lat="44.27234" lon="0.88696">
        <ele>218.4</ele>
        <time>2025-11-20T13:50:39.108Z</time>
      </trkpt>
      <trkpt lat="44.27233" lon="0.88709">
        <ele>218</ele>
        <time>2025-11-20T13:50:47.108Z</time>
      </trkpt>
      <trkpt lat="44.27233" lon="0.88733">
        <ele>217.5</ele>
        <time>2025-11-20T13:51:03.108Z</time>
      </trkpt>
      <trkpt lat="44.27235" lon="0.88755">
        <ele>217</ele>
        <time>2025-11-20T13:51:17.108Z</time>
      </trkpt>
      <trkpt lat="44.27237" lon="0.8876">
        <ele>216.8</ele>
        <time>2025-11-20T13:51:21.108Z</time>
      </trkpt>
      <trkpt lat="44.27238" lon="0.88775">
        <ele>216.4</ele>
        <time>2025-11-20T13:51:47.108Z</time>
      </trkpt>
      <trkpt lat="44.27239" lon="0.88783">
        <ele>216.1</ele>
        <time>2025-11-20T13:51:55.108Z</time>
      </trkpt>
      <trkpt lat="44.27238" lon="0.88789">
        <ele>216.1</ele>
        <time>2025-11-20T13:51:59.108Z</time>
      </trkpt>
      <trkpt lat="44.27235" lon="0.88795">
        <ele>216.3</ele>
        <time>2025-11-20T13:52:07.108Z</time>
      </trkpt>
      <trkpt lat="44.27235" lon="0.88804">
        <ele>216.2</ele>
        <time>2025-11-20T13:52:19.108Z</time>
      </trkpt>
      <trkpt lat="44.27232" lon="0.88825">
        <ele>216.3</ele>
        <time>2025-11-20T13:52:33.108Z</time>
      </trkpt>
      <trkpt lat="44.27231" lon="0.88852">
        <ele>216.4</ele>
        <time>2025-11-20T13:52:49.108Z</time>
      </trkpt>
      <trkpt lat="44.27232" lon="0.88865">
        <ele>216.4</ele>
        <time>2025-11-20T13:52:57.108Z</time>
      </trkpt>
      <trkpt lat="44.27231" lon="0.88907">
        <ele>216.7</ele>
        <time>2025-11-20T13:53:21.108Z</time>
      </trkpt>
      <trkpt lat="44.2723" lon="0.88914">
        <ele>216.7</ele>
        <time>2025-11-20T13:53:25.108Z</time>
      </trkpt>
      <trkpt lat="44.27231" lon="0.88921">
        <ele>216.6</ele>
        <time>2025-11-20T13:53:29.108Z</time>
      </trkpt>
      <trkpt lat="44.27233" lon="0.8893">
        <ele>216.3</ele>
        <time>2025-11-20T13:53:35.108Z</time>
      </trkpt>
      <trkpt lat="44.27233" lon="0.88936">
        <ele>216.2</ele>
        <time>2025-11-20T13:53:39.108Z</time>
      </trkpt>
      <trkpt lat="44.27234" lon="0.88941">
        <ele>216.1</ele>
        <time>2025-11-20T13:53:43.108Z</time>
      </trkpt>
      <trkpt lat="44.27233" lon="0.88967">
        <ele>216.8</ele>
        <time>2025-11-20T13:53:59.108Z</time>
      </trkpt>
      <trkpt lat="44.27232" lon="0.88973">
        <ele>217</ele>
        <time>2025-11-20T13:54:03.108Z</time>
      </trkpt>
      <trkpt lat="44.27232" lon="0.88979">
        <ele>217</ele>
        <time>2025-11-20T13:54:07.108Z</time>
      </trkpt>
      <trkpt lat="44.27235" lon="0.88991">
        <ele>217</ele>
        <time>2025-11-20T13:54:15.108Z</time>
      </trkpt>
      <trkpt lat="44.27236" lon="0.89003">
        <ele>217.1</ele>
        <time>2025-11-20T13:54:23.108Z</time>
      </trkpt>
      <trkpt lat="44.27236" lon="0.89042">
        <ele>217.5</ele>
        <time>2025-11-20T13:54:47.108Z</time>
      </trkpt>
      <trkpt lat="44.27235" lon="0.89083">
        <ele>218</ele>
        <time>2025-11-20T13:55:11.108Z</time>
      </trkpt>
      <trkpt lat="44.27234" lon="0.89091">
        <ele>218</ele>
        <time>2025-11-20T13:55:15.108Z</time>
      </trkpt>
      <trkpt lat="44.27234" lon="0.89098">
        <ele>218</ele>
        <time>2025-11-20T13:55:19.108Z</time>
      </trkpt>
      <trkpt lat="44.27232" lon="0.89112">
        <ele>218</ele>
        <time>2025-11-20T13:55:27.109Z</time>
      </trkpt>
      <trkpt lat="44.27233" lon="0.8912">
        <ele>218.1</ele>
        <time>2025-11-20T13:55:31.109Z</time>
      </trkpt>
      <trkpt lat="44.2723" lon="0.89148">
        <ele>218.3</ele>
        <time>2025-11-20T13:55:47.108Z</time>
      </trkpt>
      <trkpt lat="44.27229" lon="0.8919">
        <ele>218.4</ele>
        <time>2025-11-20T13:56:23.108Z</time>
      </trkpt>
      <trkpt lat="44.27229" lon="0.89204">
        <ele>218.5</ele>
        <time>2025-11-20T13:56:39.108Z</time>
      </trkpt>
      <trkpt lat="44.27228" lon="0.89216">
        <ele>218.4</ele>
        <time>2025-11-20T13:56:47.108Z</time>
      </trkpt>
      <trkpt lat="44.27227" lon="0.89223">
        <ele>218.4</ele>
        <time>2025-11-20T13:56:52.108Z</time>
      </trkpt>
      <trkpt lat="44.27227" lon="0.89225">
        <ele>218.4</ele>
        <time>2025-11-20T13:56:54.108Z</time>
      </trkpt>
      <trkpt lat="44.27228" lon="0.89232">
        <ele>218.7</ele>
        <time>2025-11-20T13:56:58.108Z</time>
      </trkpt>
      <trkpt lat="44.27227" lon="0.89238">
        <ele>218.9</ele>
        <time>2025-11-20T13:57:02.108Z</time>
      </trkpt>
      <trkpt lat="44.27226" lon="0.89247">
        <ele>219.1</ele>
        <time>2025-11-20T13:57:08.109Z</time>
      </trkpt>
      <trkpt lat="44.27224" lon="0.8925">
        <ele>219.1</ele>
        <time>2025-11-20T13:57:12.108Z</time>
      </trkpt>
      <trkpt lat="44.27224" lon="0.89256">
        <ele>219.1</ele>
        <time>2025-11-20T13:57:16.108Z</time>
      </trkpt>
      <trkpt lat="44.27226" lon="0.89277">
        <ele>219.4</ele>
        <time>2025-11-20T13:57:29.108Z</time>
      </trkpt>
      <trkpt lat="44.27228" lon="0.89279">
        <ele>219.6</ele>
        <time>2025-11-20T13:57:30.108Z</time>
      </trkpt>
      <trkpt lat="44.2723" lon="0.89292">
        <ele>220.2</ele>
        <time>2025-11-20T13:57:38.108Z</time>
      </trkpt>
      <trkpt lat="44.27228" lon="0.89313">
        <ele>220.4</ele>
        <time>2025-11-20T13:57:50.109Z</time>
      </trkpt>
      <trkpt lat="44.27217" lon="0.89336">
        <ele>219.5</ele>
        <time>2025-11-20T13:58:06.108Z</time>
      </trkpt>
      <trkpt lat="44.27209" lon="0.89358">
        <ele>218.2</ele>
        <time>2025-11-20T13:58:22.108Z</time>
      </trkpt>
      <trkpt lat="44.27204" lon="0.89368">
        <ele>217.4</ele>
        <time>2025-11-20T13:58:30.108Z</time>
      </trkpt>
      <trkpt lat="44.27192" lon="0.89405">
        <ele>215.6</ele>
        <time>2025-11-20T13:58:56.108Z</time>
      </trkpt>
      <trkpt lat="44.2719" lon="0.89419">
        <ele>215.4</ele>
        <time>2025-11-20T13:59:04.108Z</time>
      </trkpt>
      <trkpt lat="44.27185" lon="0.89434">
        <ele>214.6</ele>
        <time>2025-11-20T13:59:28.108Z</time>
      </trkpt>
      <trkpt lat="44.27189" lon="0.89452">
        <ele>215</ele>
        <time>2025-11-20T14:01:24.108Z</time>
      </trkpt>
      <trkpt lat="44.27188" lon="0.89457">
        <ele>214.7</ele>
        <time>2025-11-20T14:01:28.108Z</time>
      </trkpt>
      <trkpt lat="44.27189" lon="0.8947">
        <ele>214.5</ele>
        <time>2025-11-20T14:01:36.108Z</time>
      </trkpt>
      <trkpt lat="44.27188" lon="0.89489">
        <ele>213.8</ele>
        <time>2025-11-20T14:01:48.108Z</time>
      </trkpt>
      <trkpt lat="44.27187" lon="0.89522">
        <ele>212.5</ele>
        <time>2025-11-20T14:02:08.108Z</time>
      </trkpt>
      <trkpt lat="44.2719" lon="0.89534">
        <ele>211.9</ele>
        <time>2025-11-20T14:02:16.108Z</time>
      </trkpt>
      <trkpt lat="44.2719" lon="0.89547">
        <ele>210.7</ele>
        <time>2025-11-20T14:02:24.108Z</time>
      </trkpt>
      <trkpt lat="44.27193" lon="0.89558">
        <ele>209.8</ele>
        <time>2025-11-20T14:02:30.108Z</time>
      </trkpt>
      <trkpt lat="44.27195" lon="0.89569">
        <ele>209</ele>
        <time>2025-11-20T14:02:38.108Z</time>
      </trkpt>
      <trkpt lat="44.27194" lon="0.89583">
        <ele>207.9</ele>
        <time>2025-11-20T14:02:46.108Z</time>
      </trkpt>
      <trkpt lat="44.27195" lon="0.89593">
        <ele>207.3</ele>
        <time>2025-11-20T14:02:54.108Z</time>
      </trkpt>
      <trkpt lat="44.27194" lon="0.89604">
        <ele>206.5</ele>
        <time>2025-11-20T14:03:02.108Z</time>
      </trkpt>
      <trkpt lat="44.27195" lon="0.89635">
        <ele>204.5</ele>
        <time>2025-11-20T14:03:22.108Z</time>
      </trkpt>
      <trkpt lat="44.27196" lon="0.89639">
        <ele>204.4</ele>
        <time>2025-11-20T14:03:26.109Z</time>
      </trkpt>
      <trkpt lat="44.27199" lon="0.89649">
        <ele>203.9</ele>
        <time>2025-11-20T14:03:38.108Z</time>
      </trkpt>
      <trkpt lat="44.27202" lon="0.89662">
        <ele>203.5</ele>
        <time>2025-11-20T14:03:46.109Z</time>
      </trkpt>
      <trkpt lat="44.27207" lon="0.89675">
        <ele>204.4</ele>
        <time>2025-11-20T14:03:54.108Z</time>
      </trkpt>
      <trkpt lat="44.27209" lon="0.89688">
        <ele>204.8</ele>
        <time>2025-11-20T14:04:02.108Z</time>
      </trkpt>
      <trkpt lat="44.2721" lon="0.89692">
        <ele>205.1</ele>
        <time>2025-11-20T14:04:04.108Z</time>
      </trkpt>
      <trkpt lat="44.27213" lon="0.89723">
        <ele>205.6</ele>
        <time>2025-11-20T14:04:20.108Z</time>
      </trkpt>
      <trkpt lat="44.27213" lon="0.89745">
        <ele>205.1</ele>
        <time>2025-11-20T14:04:32.108Z</time>
      </trkpt>
      <trkpt lat="44.27211" lon="0.89759">
        <ele>204.3</ele>
        <time>2025-11-20T14:04:40.108Z</time>
      </trkpt>
      <trkpt lat="44.27211" lon="0.89767">
        <ele>204</ele>
        <time>2025-11-20T14:04:45.108Z</time>
      </trkpt>
      <trkpt lat="44.27212" lon="0.89774">
        <ele>204</ele>
        <time>2025-11-20T14:04:49.108Z</time>
      </trkpt>
      <trkpt lat="44.27211" lon="0.89791">
        <ele>204</ele>
        <time>2025-11-20T14:05:01.108Z</time>
      </trkpt>
      <trkpt lat="44.27209" lon="0.89797">
        <ele>203.9</ele>
        <time>2025-11-20T14:05:05.108Z</time>
      </trkpt>
      <trkpt lat="44.27202" lon="0.89809">
        <ele>203.5</ele>
        <time>2025-11-20T14:05:13.108Z</time>
      </trkpt>
      <trkpt lat="44.27183" lon="0.89828">
        <ele>203.2</ele>
        <time>2025-11-20T14:05:29.108Z</time>
      </trkpt>
      <trkpt lat="44.27167" lon="0.89846">
        <ele>204</ele>
        <time>2025-11-20T14:05:45.108Z</time>
      </trkpt>
      <trkpt lat="44.27124" lon="0.899">
        <ele>207.8</ele>
        <time>2025-11-20T14:06:33.108Z</time>
      </trkpt>
      <trkpt lat="44.27111" lon="0.89915">
        <ele>208.1</ele>
        <time>2025-11-20T14:06:49.108Z</time>
      </trkpt>
      <trkpt lat="44.27103" lon="0.89924">
        <ele>209</ele>
        <time>2025-11-20T14:06:57.108Z</time>
      </trkpt>
      <trkpt lat="44.27073" lon="0.89953">
        <ele>210.6</ele>
        <time>2025-11-20T14:07:29.108Z</time>
      </trkpt>
      <trkpt lat="44.27059" lon="0.8997">
        <ele>211</ele>
        <time>2025-11-20T14:07:45.108Z</time>
      </trkpt>
      <trkpt lat="44.27047" lon="0.89988">
        <ele>212.3</ele>
        <time>2025-11-20T14:08:01.108Z</time>
      </trkpt>
      <trkpt lat="44.27037" lon="0.90009">
        <ele>213.1</ele>
        <time>2025-11-20T14:08:17.108Z</time>
      </trkpt>
      <trkpt lat="44.27031" lon="0.9003">
        <ele>213.3</ele>
        <time>2025-11-20T14:08:33.108Z</time>
      </trkpt>
      <trkpt lat="44.27026" lon="0.90042">
        <ele>214.1</ele>
        <time>2025-11-20T14:08:41.108Z</time>
      </trkpt>
      <trkpt lat="44.27024" lon="0.90052">
        <ele>214.9</ele>
        <time>2025-11-20T14:08:49.109Z</time>
      </trkpt>
      <trkpt lat="44.27013" lon="0.90074">
        <ele>215.8</ele>
        <time>2025-11-20T14:09:05.108Z</time>
      </trkpt>
      <trkpt lat="44.27006" lon="0.90084">
        <ele>216</ele>
        <time>2025-11-20T14:09:13.108Z</time>
      </trkpt>
      <trkpt lat="44.26992" lon="0.90103">
        <ele>216.8</ele>
        <time>2025-11-20T14:09:29.108Z</time>
      </trkpt>
      <trkpt lat="44.26976" lon="0.90118">
        <ele>217</ele>
        <time>2025-11-20T14:09:45.108Z</time>
      </trkpt>
      <trkpt lat="44.26958" lon="0.90141">
        <ele>217.5</ele>
        <time>2025-11-20T14:10:09.108Z</time>
      </trkpt>
      <trkpt lat="44.26946" lon="0.9016">
        <ele>217.9</ele>
        <time>2025-11-20T14:10:25.108Z</time>
      </trkpt>
      <trkpt lat="44.26938" lon="0.90169">
        <ele>218.1</ele>
        <time>2025-11-20T14:10:33.108Z</time>
      </trkpt>
      <trkpt lat="44.26924" lon="0.90188">
        <ele>218</ele>
        <time>2025-11-20T14:10:49.108Z</time>
      </trkpt>
      <trkpt lat="44.26917" lon="0.90195">
        <ele>218</ele>
        <time>2025-11-20T14:10:57.108Z</time>
      </trkpt>
      <trkpt lat="44.26892" lon="0.90232">
        <ele>218.8</ele>
        <time>2025-11-20T14:11:29.108Z</time>
      </trkpt>
      <trkpt lat="44.26869" lon="0.90263">
        <ele>219.6</ele>
        <time>2025-11-20T14:12:01.108Z</time>
      </trkpt>
      <trkpt lat="44.2686" lon="0.90272">
        <ele>220</ele>
        <time>2025-11-20T14:12:13.108Z</time>
      </trkpt>
      <trkpt lat="44.26859" lon="0.90275">
        <ele>220.1</ele>
        <time>2025-11-20T14:14:33.108Z</time>
      </trkpt>
      <trkpt lat="44.26842" lon="0.90291">
        <ele>220.2</ele>
        <time>2025-11-20T14:15:49.108Z</time>
      </trkpt>
      <trkpt lat="44.26839" lon="0.90292">
        <ele>220.3</ele>
        <time>2025-11-20T14:15:53.108Z</time>
      </trkpt>
      <trkpt lat="44.26827" lon="0.90299">
        <ele>220.4</ele>
        <time>2025-11-20T14:16:05.108Z</time>
      </trkpt>
      <trkpt lat="44.26802" lon="0.90318">
        <ele>220.3</ele>
        <time>2025-11-20T14:16:29.108Z</time>
      </trkpt>
      <trkpt lat="44.26793" lon="0.90323">
        <ele>220.3</ele>
        <time>2025-11-20T14:16:37.108Z</time>
      </trkpt>
      <trkpt lat="44.26777" lon="0.90337">
        <ele>220.9</ele>
        <time>2025-11-20T14:16:53.108Z</time>
      </trkpt>
      <trkpt lat="44.26763" lon="0.90352">
        <ele>220.9</ele>
        <time>2025-11-20T14:17:09.108Z</time>
      </trkpt>
      <trkpt lat="44.2676" lon="0.90354">
        <ele>220.9</ele>
        <time>2025-11-20T14:17:13.108Z</time>
      </trkpt>
      <trkpt lat="44.26745" lon="0.9037">
        <ele>221.2</ele>
        <time>2025-11-20T14:17:29.108Z</time>
      </trkpt>
      <trkpt lat="44.26737" lon="0.90376">
        <ele>221.5</ele>
        <time>2025-11-20T14:17:37.108Z</time>
      </trkpt>
      <trkpt lat="44.26716" lon="0.904">
        <ele>222.2</ele>
        <time>2025-11-20T14:18:01.108Z</time>
      </trkpt>
      <trkpt lat="44.26703" lon="0.90414">
        <ele>222.7</ele>
        <time>2025-11-20T14:18:17.108Z</time>
      </trkpt>
      <trkpt lat="44.26696" lon="0.90423">
        <ele>222.7</ele>
        <time>2025-11-20T14:18:25.108Z</time>
      </trkpt>
      <trkpt lat="44.26689" lon="0.9043">
        <ele>222.6</ele>
        <time>2025-11-20T14:18:33.108Z</time>
      </trkpt>
      <trkpt lat="44.26678" lon="0.90443">
        <ele>222.6</ele>
        <time>2025-11-20T14:18:45.108Z</time>
      </trkpt>
      <trkpt lat="44.2667" lon="0.9045">
        <ele>222.7</ele>
        <time>2025-11-20T14:18:53.108Z</time>
      </trkpt>
      <trkpt lat="44.26656" lon="0.90465">
        <ele>222.6</ele>
        <time>2025-11-20T14:19:09.108Z</time>
      </trkpt>
      <trkpt lat="44.2665" lon="0.90476">
        <ele>222.6</ele>
        <time>2025-11-20T14:19:17.108Z</time>
      </trkpt>
      <trkpt lat="44.26637" lon="0.90494">
        <ele>223.1</ele>
        <time>2025-11-20T14:19:33.108Z</time>
      </trkpt>
      <trkpt lat="44.26632" lon="0.90504">
        <ele>223.3</ele>
        <time>2025-11-20T14:19:41.108Z</time>
      </trkpt>
      <trkpt lat="44.26619" lon="0.90539">
        <ele>223.7</ele>
        <time>2025-11-20T14:20:05.108Z</time>
      </trkpt>
      <trkpt lat="44.26613" lon="0.90549">
        <ele>223.9</ele>
        <time>2025-11-20T14:20:13.108Z</time>
      </trkpt>
      <trkpt lat="44.26601" lon="0.90561">
        <ele>224.5</ele>
        <time>2025-11-20T14:20:25.108Z</time>
      </trkpt>
      <trkpt lat="44.2659" lon="0.90581">
        <ele>225</ele>
        <time>2025-11-20T14:20:41.108Z</time>
      </trkpt>
      <trkpt lat="44.26539" lon="0.90681">
        <ele>224.2</ele>
        <time>2025-11-20T14:21:53.108Z</time>
      </trkpt>
      <trkpt lat="44.26525" lon="0.90714">
        <ele>223.9</ele>
        <time>2025-11-20T14:22:17.108Z</time>
      </trkpt>
      <trkpt lat="44.26513" lon="0.90736">
        <ele>223.5</ele>
        <time>2025-11-20T14:22:33.108Z</time>
      </trkpt>
      <trkpt lat="44.26501" lon="0.90757">
        <ele>223.3</ele>
        <time>2025-11-20T14:22:49.108Z</time>
      </trkpt>
      <trkpt lat="44.26485" lon="0.90775">
        <ele>222.9</ele>
        <time>2025-11-20T14:23:05.108Z</time>
      </trkpt>
      <trkpt lat="44.26465" lon="0.90795">
        <ele>222.4</ele>
        <time>2025-11-20T14:23:25.108Z</time>
      </trkpt>
      <trkpt lat="44.26448" lon="0.90809">
        <ele>222.1</ele>
        <time>2025-11-20T14:23:41.108Z</time>
      </trkpt>
      <trkpt lat="44.26412" lon="0.90835">
        <ele>220.8</ele>
        <time>2025-11-20T14:24:13.108Z</time>
      </trkpt>
      <trkpt lat="44.26407" lon="0.90837">
        <ele>220.6</ele>
        <time>2025-11-20T14:24:17.108Z</time>
      </trkpt>
      <trkpt lat="44.26398" lon="0.90844">
        <ele>220.3</ele>
        <time>2025-11-20T14:24:25.108Z</time>
      </trkpt>
      <trkpt lat="44.26389" lon="0.90849">
        <ele>220</ele>
        <time>2025-11-20T14:24:33.108Z</time>
      </trkpt>
      <trkpt lat="44.2637" lon="0.9086">
        <ele>220</ele>
        <time>2025-11-20T14:24:49.108Z</time>
      </trkpt>
      <trkpt lat="44.2636" lon="0.90865">
        <ele>219.8</ele>
        <time>2025-11-20T14:24:57.108Z</time>
      </trkpt>
      <trkpt lat="44.26356" lon="0.90869">
        <ele>219.7</ele>
        <time>2025-11-20T14:25:01.108Z</time>
      </trkpt>
      <trkpt lat="44.26346" lon="0.90873">
        <ele>219.6</ele>
        <time>2025-11-20T14:25:09.108Z</time>
      </trkpt>
      <trkpt lat="44.26344" lon="0.90873">
        <ele>219.6</ele>
        <time>2025-11-20T14:25:11.108Z</time>
      </trkpt>
      <trkpt lat="44.26326" lon="0.90888">
        <ele>219</ele>
        <time>2025-11-20T14:25:27.108Z</time>
      </trkpt>
      <trkpt lat="44.26317" lon="0.90894">
        <ele>218.8</ele>
        <time>2025-11-20T14:25:35.108Z</time>
      </trkpt>
      <trkpt lat="44.26308" lon="0.90903">
        <ele>218.5</ele>
        <time>2025-11-20T14:25:43.108Z</time>
      </trkpt>
      <trkpt lat="44.26303" lon="0.90906">
        <ele>218.3</ele>
        <time>2025-11-20T14:25:47.108Z</time>
      </trkpt>
      <trkpt lat="44.263" lon="0.90909">
        <ele>218</ele>
        <time>2025-11-20T14:25:51.108Z</time>
      </trkpt>
      <trkpt lat="44.26296" lon="0.90912">
        <ele>217.8</ele>
        <time>2025-11-20T14:25:55.108Z</time>
      </trkpt>
      <trkpt lat="44.26273" lon="0.90935">
        <ele>216.1</ele>
        <time>2025-11-20T14:26:19.108Z</time>
      </trkpt>
      <trkpt lat="44.2626" lon="0.90943">
        <ele>215.4</ele>
        <time>2025-11-20T14:26:31.108Z</time>
      </trkpt>
      <trkpt lat="44.26255" lon="0.90944">
        <ele>215.2</ele>
        <time>2025-11-20T14:26:35.108Z</time>
      </trkpt>
      <trkpt lat="44.26246" lon="0.90949">
        <ele>214.8</ele>
        <time>2025-11-20T14:26:43.108Z</time>
      </trkpt>
      <trkpt lat="44.26237" lon="0.90952">
        <ele>214.5</ele>
        <time>2025-11-20T14:26:51.108Z</time>
      </trkpt>
      <trkpt lat="44.26227" lon="0.90957">
        <ele>214.2</ele>
        <time>2025-11-20T14:26:59.108Z</time>
      </trkpt>
      <trkpt lat="44.26218" lon="0.9096">
        <ele>213.7</ele>
        <time>2025-11-20T14:27:07.108Z</time>
      </trkpt>
      <trkpt lat="44.26208" lon="0.90966">
        <ele>213</ele>
        <time>2025-11-20T14:27:15.108Z</time>
      </trkpt>
      <trkpt lat="44.26204" lon="0.90966">
        <ele>212.7</ele>
        <time>2025-11-20T14:27:19.108Z</time>
      </trkpt>
      <trkpt lat="44.26184" lon="0.90976">
        <ele>210.6</ele>
        <time>2025-11-20T14:28:59.108Z</time>
      </trkpt>
      <trkpt lat="44.26155" lon="0.90982">
        <ele>207.1</ele>
        <time>2025-11-20T14:33:57.108Z</time>
      </trkpt>
      <trkpt lat="44.26154" lon="0.90981">
        <ele>207</ele>
        <time>2025-11-20T14:34:07.108Z</time>
      </trkpt>
      <trkpt lat="44.26152" lon="0.90973">
        <ele>206.4</ele>
        <time>2025-11-20T14:34:15.108Z</time>
      </trkpt>
      <trkpt lat="44.26151" lon="0.9096">
        <ele>206.3</ele>
        <time>2025-11-20T14:34:23.108Z</time>
      </trkpt>
      <trkpt lat="44.26151" lon="0.90949">
        <ele>206.3</ele>
        <time>2025-11-20T14:34:31.108Z</time>
      </trkpt>
      <trkpt lat="44.26152" lon="0.90936">
        <ele>206.4</ele>
        <time>2025-11-20T14:34:39.108Z</time>
      </trkpt>
      <trkpt lat="44.26148" lon="0.90877">
        <ele>204.9</ele>
        <time>2025-11-20T14:35:15.108Z</time>
      </trkpt>
      <trkpt lat="44.26149" lon="0.90863">
        <ele>204.8</ele>
        <time>2025-11-20T14:35:23.108Z</time>
      </trkpt>
      <trkpt lat="44.26147" lon="0.90837">
        <ele>204.6</ele>
        <time>2025-11-20T14:35:39.108Z</time>
      </trkpt>
      <trkpt lat="44.26147" lon="0.90812">
        <ele>204.6</ele>
        <time>2025-11-20T14:35:55.108Z</time>
      </trkpt>
      <trkpt lat="44.26144" lon="0.90762">
        <ele>204.8</ele>
        <time>2025-11-20T14:36:27.108Z</time>
      </trkpt>
      <trkpt lat="44.26143" lon="0.90723">
        <ele>206</ele>
        <time>2025-11-20T14:36:51.108Z</time>
      </trkpt>
      <trkpt lat="44.26143" lon="0.90716">
        <ele>206.2</ele>
        <time>2025-11-20T14:36:55.108Z</time>
      </trkpt>
      <trkpt lat="44.26144" lon="0.90692">
        <ele>207.1</ele>
        <time>2025-11-20T14:37:11.108Z</time>
      </trkpt>
      <trkpt lat="44.26146" lon="0.90681">
        <ele>207.5</ele>
        <time>2025-11-20T14:37:19.108Z</time>
      </trkpt>
      <trkpt lat="44.26146" lon="0.90633">
        <ele>210.5</ele>
        <time>2025-11-20T14:37:51.108Z</time>
      </trkpt>
      <trkpt lat="44.26147" lon="0.90513">
        <ele>210.7</ele>
        <time>2025-11-20T14:39:11.108Z</time>
      </trkpt>
      <trkpt lat="44.26146" lon="0.90489">
        <ele>210.1</ele>
        <time>2025-11-20T14:39:27.108Z</time>
      </trkpt>
      <trkpt lat="44.26148" lon="0.90414">
        <ele>207.8</ele>
        <time>2025-11-20T14:40:11.108Z</time>
      </trkpt>
      <trkpt lat="44.26149" lon="0.90408">
        <ele>207.6</ele>
        <time>2025-11-20T14:40:15.108Z</time>
      </trkpt>
      <trkpt lat="44.26151" lon="0.90402">
        <ele>207.5</ele>
        <time>2025-11-20T14:40:19.108Z</time>
      </trkpt>
      <trkpt lat="44.26154" lon="0.90399">
        <ele>207.7</ele>
        <time>2025-11-20T14:40:23.108Z</time>
      </trkpt>
      <trkpt lat="44.26159" lon="0.90398">
        <ele>208</ele>
        <time>2025-11-20T14:40:27.108Z</time>
      </trkpt>
      <trkpt lat="44.26163" lon="0.90398">
        <ele>208.4</ele>
        <time>2025-11-20T14:40:31.108Z</time>
      </trkpt>
      <trkpt lat="44.26167" lon="0.904">
        <ele>208.8</ele>
        <time>2025-11-20T14:40:35.108Z</time>
      </trkpt>
      <trkpt lat="44.26173" lon="0.904">
        <ele>209.3</ele>
        <time>2025-11-20T14:40:41.108Z</time>
      </trkpt>
      <trkpt lat="44.26182" lon="0.90402">
        <ele>210</ele>
        <time>2025-11-20T14:40:49.108Z</time>
      </trkpt>
      <trkpt lat="44.26199" lon="0.90403">
        <ele>211.3</ele>
        <time>2025-11-20T14:41:05.108Z</time>
      </trkpt>
      <trkpt lat="44.26215" lon="0.90403">
        <ele>212.1</ele>
        <time>2025-11-20T14:41:21.108Z</time>
      </trkpt>
      <trkpt lat="44.26219" lon="0.90402">
        <ele>212.2</ele>
        <time>2025-11-20T14:41:25.108Z</time>
      </trkpt>
      <trkpt lat="44.26225" lon="0.904">
        <ele>212.5</ele>
        <time>2025-11-20T14:41:33.108Z</time>
      </trkpt>
      <trkpt lat="44.26232" lon="0.90394">
        <ele>212.3</ele>
        <time>2025-11-20T14:41:45.108Z</time>
      </trkpt>
      <trkpt lat="44.26237" lon="0.90392">
        <ele>212.4</ele>
        <time>2025-11-20T14:41:51.117Z</time>
      </trkpt>
      <trkpt lat="44.26239" lon="0.90388">
        <ele>212.1</ele>
        <time>2025-11-20T14:41:55.108Z</time>
      </trkpt>
      <trkpt lat="44.26241" lon="0.90388">
        <ele>212.2</ele>
        <time>2025-11-20T14:41:57.108Z</time>
      </trkpt>
      <trkpt lat="44.26261" lon="0.90375">
        <ele>212.9</ele>
        <time>2025-11-20T14:42:20.108Z</time>
      </trkpt>
      <trkpt lat="44.26263" lon="0.90372">
        <ele>212.9</ele>
        <time>2025-11-20T14:42:22.108Z</time>
      </trkpt>
      <trkpt lat="44.26263" lon="0.90369">
        <ele>212.7</ele>
        <time>2025-11-20T14:42:24.108Z</time>
      </trkpt>
      <trkpt lat="44.26269" lon="0.90366">
        <ele>212.9</ele>
        <time>2025-11-20T14:42:31.108Z</time>
      </trkpt>
      <trkpt lat="44.26275" lon="0.9036">
        <ele>212.7</ele>
        <time>2025-11-20T14:42:39.108Z</time>
      </trkpt>
      <trkpt lat="44.26282" lon="0.90352">
        <ele>212.8</ele>
        <time>2025-11-20T14:42:47.108Z</time>
      </trkpt>
      <trkpt lat="44.26295" lon="0.9034">
        <ele>213.3</ele>
        <time>2025-11-20T14:43:03.108Z</time>
      </trkpt>
      <trkpt lat="44.26312" lon="0.90316">
        <ele>213.9</ele>
        <time>2025-11-20T14:43:27.108Z</time>
      </trkpt>
      <trkpt lat="44.26324" lon="0.90299">
        <ele>215</ele>
        <time>2025-11-20T14:43:43.108Z</time>
      </trkpt>
      <trkpt lat="44.26333" lon="0.90285">
        <ele>215.9</ele>
        <time>2025-11-20T14:43:55.108Z</time>
      </trkpt>
      <trkpt lat="44.26336" lon="0.90274">
        <ele>216.2</ele>
        <time>2025-11-20T14:44:03.108Z</time>
      </trkpt>
      <trkpt lat="44.26337" lon="0.90269">
        <ele>216.2</ele>
        <time>2025-11-20T14:44:07.108Z</time>
      </trkpt>
      <trkpt lat="44.26335" lon="0.90252">
        <ele>216.1</ele>
        <time>2025-11-20T14:44:19.108Z</time>
      </trkpt>
      <trkpt lat="44.26322" lon="0.90212">
        <ele>214.2</ele>
        <time>2025-11-20T14:44:51.108Z</time>
      </trkpt>
      <trkpt lat="44.26314" lon="0.90165">
        <ele>212.8</ele>
        <time>2025-11-20T14:45:23.108Z</time>
      </trkpt>
      <trkpt lat="44.26313" lon="0.90152">
        <ele>212.6</ele>
        <time>2025-11-20T14:45:31.108Z</time>
      </trkpt>
      <trkpt lat="44.26313" lon="0.9014">
        <ele>212.7</ele>
        <time>2025-11-20T14:45:39.108Z</time>
      </trkpt>
      <trkpt lat="44.26311" lon="0.90129">
        <ele>213</ele>
        <time>2025-11-20T14:45:47.108Z</time>
      </trkpt>
      <trkpt lat="44.26309" lon="0.90123">
        <ele>212.9</ele>
        <time>2025-11-20T14:45:51.108Z</time>
      </trkpt>
      <trkpt lat="44.26303" lon="0.90119">
        <ele>212.3</ele>
        <time>2025-11-20T14:45:57.108Z</time>
      </trkpt>
      <trkpt lat="44.26289" lon="0.90122">
        <ele>211.3</ele>
        <time>2025-11-20T14:46:09.108Z</time>
      </trkpt>
      <trkpt lat="44.26287" lon="0.90123">
        <ele>211.1</ele>
        <time>2025-11-20T14:46:11.108Z</time>
      </trkpt>
      <trkpt lat="44.26282" lon="0.90122">
        <ele>210.9</ele>
        <time>2025-11-20T14:46:15.108Z</time>
      </trkpt>
      <trkpt lat="44.26265" lon="0.90127">
        <ele>211.5</ele>
        <time>2025-11-20T14:46:35.108Z</time>
      </trkpt>
      <trkpt lat="44.2626" lon="0.90134">
        <ele>210.7</ele>
        <time>2025-11-20T14:46:45.108Z</time>
      </trkpt>
      <trkpt lat="44.26256" lon="0.90138">
        <ele>210.1</ele>
        <time>2025-11-20T14:46:49.108Z</time>
      </trkpt>
      <trkpt lat="44.26251" lon="0.90141">
        <ele>210</ele>
        <time>2025-11-20T14:46:53.108Z</time>
      </trkpt>
      <trkpt lat="44.26248" lon="0.90144">
        <ele>210.2</ele>
        <time>2025-11-20T14:46:57.108Z</time>
      </trkpt>
      <trkpt lat="44.26241" lon="0.90147">
        <ele>210.8</ele>
        <time>2025-11-20T14:47:03.108Z</time>
      </trkpt>
      <trkpt lat="44.26237" lon="0.90146">
        <ele>211.2</ele>
        <time>2025-11-20T14:47:07.108Z</time>
      </trkpt>
      <trkpt lat="44.26233" lon="0.90144">
        <ele>211.6</ele>
        <time>2025-11-20T14:47:11.108Z</time>
      </trkpt>
      <trkpt lat="44.26229" lon="0.90144">
        <ele>212</ele>
        <time>2025-11-20T14:47:15.108Z</time>
      </trkpt>
      <trkpt lat="44.26226" lon="0.90142">
        <ele>212.4</ele>
        <time>2025-11-20T14:47:17.108Z</time>
      </trkpt>
      <trkpt lat="44.26221" lon="0.90141">
        <ele>212.8</ele>
        <time>2025-11-20T14:47:21.108Z</time>
      </trkpt>
      <trkpt lat="44.26213" lon="0.90141">
        <ele>212.5</ele>
        <time>2025-11-20T14:47:29.108Z</time>
      </trkpt>
      <trkpt lat="44.26205" lon="0.90139">
        <ele>212.4</ele>
        <time>2025-11-20T14:47:37.108Z</time>
      </trkpt>
      <trkpt lat="44.26196" lon="0.90139">
        <ele>212.1</ele>
        <time>2025-11-20T14:47:45.108Z</time>
      </trkpt>
      <trkpt lat="44.26181" lon="0.90131">
        <ele>212.2</ele>
        <time>2025-11-20T14:47:59.108Z</time>
      </trkpt>
      <trkpt lat="44.26178" lon="0.90127">
        <ele>212.4</ele>
        <time>2025-11-20T14:48:03.108Z</time>
      </trkpt>
      <trkpt lat="44.26175" lon="0.90122">
        <ele>212.6</ele>
        <time>2025-11-20T14:48:07.108Z</time>
      </trkpt>
      <trkpt lat="44.2617" lon="0.90112">
        <ele>213.2</ele>
        <time>2025-11-20T14:48:15.108Z</time>
      </trkpt>
      <trkpt lat="44.26165" lon="0.90103">
        <ele>214.2</ele>
        <time>2025-11-20T14:48:23.108Z</time>
      </trkpt>
      <trkpt lat="44.26161" lon="0.901">
        <ele>214.6</ele>
        <time>2025-11-20T14:48:27.108Z</time>
      </trkpt>
      <trkpt lat="44.26159" lon="0.90095">
        <ele>215.2</ele>
        <time>2025-11-20T14:48:31.108Z</time>
      </trkpt>
      <trkpt lat="44.26141" lon="0.90077">
        <ele>216.3</ele>
        <time>2025-11-20T14:48:53.108Z</time>
      </trkpt>
      <trkpt lat="44.2614" lon="0.90075">
        <ele>216.4</ele>
        <time>2025-11-20T14:48:55.108Z</time>
      </trkpt>
      <trkpt lat="44.26133" lon="0.90067">
        <ele>216.3</ele>
        <time>2025-11-20T14:51:55.108Z</time>
      </trkpt>
      <trkpt lat="44.26131" lon="0.90064">
        <ele>216.2</ele>
        <time>2025-11-20T14:52:43.108Z</time>
      </trkpt>
      <trkpt lat="44.26125" lon="0.90057">
        <ele>216</ele>
        <time>2025-11-20T14:52:51.108Z</time>
      </trkpt>
      <trkpt lat="44.26115" lon="0.90048">
        <ele>214.7</ele>
        <time>2025-11-20T14:53:03.108Z</time>
      </trkpt>
      <trkpt lat="44.26109" lon="0.9004">
        <ele>213.6</ele>
        <time>2025-11-20T14:53:11.108Z</time>
      </trkpt>
      <trkpt lat="44.26104" lon="0.90038">
        <ele>213.1</ele>
        <time>2025-11-20T14:53:17.108Z</time>
      </trkpt>
      <trkpt lat="44.26102" lon="0.90038">
        <ele>212.9</ele>
        <time>2025-11-20T14:53:19.108Z</time>
      </trkpt>
      <trkpt lat="44.26099" lon="0.90028">
        <ele>212.1</ele>
        <time>2025-11-20T14:53:54.108Z</time>
      </trkpt>
      <trkpt lat="44.26094" lon="0.9002">
        <ele>211.2</ele>
        <time>2025-11-20T14:54:02.108Z</time>
      </trkpt>
      <trkpt lat="44.26087" lon="0.90012">
        <ele>210.2</ele>
        <time>2025-11-20T14:54:10.108Z</time>
      </trkpt>
      <trkpt lat="44.26083" lon="0.90005">
        <ele>209.3</ele>
        <time>2025-11-20T14:54:18.108Z</time>
      </trkpt>
      <trkpt lat="44.26078" lon="0.89997">
        <ele>208.7</ele>
        <time>2025-11-20T14:54:26.108Z</time>
      </trkpt>
      <trkpt lat="44.26073" lon="0.8999">
        <ele>208.3</ele>
        <time>2025-11-20T14:54:34.108Z</time>
      </trkpt>
      <trkpt lat="44.2606" lon="0.89968">
        <ele>206.9</ele>
        <time>2025-11-20T14:55:06.108Z</time>
      </trkpt>
      <trkpt lat="44.26047" lon="0.89952">
        <ele>205.1</ele>
        <time>2025-11-20T14:55:46.108Z</time>
      </trkpt>
      <trkpt lat="44.26034" lon="0.89932">
        <ele>203.8</ele>
        <time>2025-11-20T14:56:06.108Z</time>
      </trkpt>
      <trkpt lat="44.26027" lon="0.89924">
        <ele>203.2</ele>
        <time>2025-11-20T14:56:14.108Z</time>
      </trkpt>
      <trkpt lat="44.26002" lon="0.89888">
        <ele>201</ele>
        <time>2025-11-20T14:56:46.108Z</time>
      </trkpt>
      <trkpt lat="44.25998" lon="0.89884">
        <ele>200.5</ele>
        <time>2025-11-20T14:56:50.108Z</time>
      </trkpt>
      <trkpt lat="44.25998" lon="0.89881">
        <ele>200.2</ele>
        <time>2025-11-20T14:56:52.108Z</time>
      </trkpt>
      <trkpt lat="44.25991" lon="0.89873">
        <ele>199.1</ele>
        <time>2025-11-20T14:57:00.108Z</time>
      </trkpt>
      <trkpt lat="44.25989" lon="0.89872">
        <ele>198.8</ele>
        <time>2025-11-20T14:57:02.108Z</time>
      </trkpt>
      <trkpt lat="44.25981" lon="0.8986">
        <ele>197.6</ele>
        <time>2025-11-20T14:57:14.108Z</time>
      </trkpt>
      <trkpt lat="44.25976" lon="0.89856">
        <ele>197.2</ele>
        <time>2025-11-20T14:57:22.108Z</time>
      </trkpt>
      <trkpt lat="44.2597" lon="0.89849">
        <ele>196.9</ele>
        <time>2025-11-20T14:57:34.108Z</time>
      </trkpt>
      <trkpt lat="44.25966" lon="0.89849">
        <ele>196.6</ele>
        <time>2025-11-20T14:57:40.108Z</time>
      </trkpt>
      <trkpt lat="44.25959" lon="0.89856">
        <ele>195.9</ele>
        <time>2025-11-20T14:57:56.108Z</time>
      </trkpt>
      <trkpt lat="44.25948" lon="0.89864">
        <ele>194.2</ele>
        <time>2025-11-20T14:58:12.108Z</time>
      </trkpt>
      <trkpt lat="44.25935" lon="0.89876">
        <ele>192.3</ele>
        <time>2025-11-20T14:58:24.108Z</time>
      </trkpt>
      <trkpt lat="44.25926" lon="0.89881">
        <ele>191</ele>
        <time>2025-11-20T14:58:32.108Z</time>
      </trkpt>
      <trkpt lat="44.25923" lon="0.89881">
        <ele>190.5</ele>
        <time>2025-11-20T14:58:36.108Z</time>
      </trkpt>
      <trkpt lat="44.25915" lon="0.89885">
        <ele>189.1</ele>
        <time>2025-11-20T14:58:44.108Z</time>
      </trkpt>
      <trkpt lat="44.25908" lon="0.89886">
        <ele>189.2</ele>
        <time>2025-11-20T14:58:51.108Z</time>
      </trkpt>
      <trkpt lat="44.25906" lon="0.89887">
        <ele>189</ele>
        <time>2025-11-20T14:58:53.108Z</time>
      </trkpt>
      <trkpt lat="44.25899" lon="0.89892">
        <ele>188.4</ele>
        <time>2025-11-20T14:59:01.108Z</time>
      </trkpt>
      <trkpt lat="44.25891" lon="0.89904">
        <ele>187.5</ele>
        <time>2025-11-20T14:59:11.108Z</time>
      </trkpt>
      <trkpt lat="44.25888" lon="0.89905">
        <ele>187.2</ele>
        <time>2025-11-20T14:59:15.108Z</time>
      </trkpt>
      <trkpt lat="44.25885" lon="0.89908">
        <ele>186.9</ele>
        <time>2025-11-20T14:59:19.108Z</time>
      </trkpt>
      <trkpt lat="44.2588" lon="0.89909">
        <ele>186.8</ele>
        <time>2025-11-20T14:59:23.108Z</time>
      </trkpt>
      <trkpt lat="44.25875" lon="0.89913">
        <ele>186.1</ele>
        <time>2025-11-20T14:59:27.108Z</time>
      </trkpt>
      <trkpt lat="44.25872" lon="0.89914">
        <ele>185.8</ele>
        <time>2025-11-20T14:59:31.108Z</time>
      </trkpt>
      <trkpt lat="44.25866" lon="0.89914">
        <ele>185.7</ele>
        <time>2025-11-20T14:59:35.108Z</time>
      </trkpt>
      <trkpt lat="44.25862" lon="0.89917">
        <ele>185</ele>
        <time>2025-11-20T14:59:39.108Z</time>
      </trkpt>
      <trkpt lat="44.2586" lon="0.89917">
        <ele>185</ele>
        <time>2025-11-20T14:59:41.108Z</time>
      </trkpt>
      <trkpt lat="44.25856" lon="0.8992">
        <ele>184.7</ele>
        <time>2025-11-20T14:59:45.108Z</time>
      </trkpt>
      <trkpt lat="44.25847" lon="0.89923">
        <ele>184.4</ele>
        <time>2025-11-20T14:59:53.108Z</time>
      </trkpt>
      <trkpt lat="44.25839" lon="0.89922">
        <ele>184.4</ele>
        <time>2025-11-20T15:00:01.108Z</time>
      </trkpt>
      <trkpt lat="44.25828" lon="0.89928">
        <ele>184.6</ele>
        <time>2025-11-20T15:00:12.108Z</time>
      </trkpt>
      <trkpt lat="44.25821" lon="0.89936">
        <ele>184</ele>
        <time>2025-11-20T15:00:20.108Z</time>
      </trkpt>
      <trkpt lat="44.25813" lon="0.89948">
        <ele>182.4</ele>
        <time>2025-11-20T15:02:07.108Z</time>
      </trkpt>
      <trkpt lat="44.2581" lon="0.89952">
        <ele>181.8</ele>
        <time>2025-11-20T15:02:40.108Z</time>
      </trkpt>
      <trkpt lat="44.25804" lon="0.89959">
        <ele>181.1</ele>
        <time>2025-11-20T15:02:46.108Z</time>
      </trkpt>
      <trkpt lat="44.25803" lon="0.89961">
        <ele>180.8</ele>
        <time>2025-11-20T15:02:47.108Z</time>
      </trkpt>
      <trkpt lat="44.25799" lon="0.89966">
        <ele>180.3</ele>
        <time>2025-11-20T15:02:51.108Z</time>
      </trkpt>
      <trkpt lat="44.2579" lon="0.89972">
        <ele>179.6</ele>
        <time>2025-11-20T15:02:59.108Z</time>
      </trkpt>
      <trkpt lat="44.25788" lon="0.89972">
        <ele>179.8</ele>
        <time>2025-11-20T15:03:01.108Z</time>
      </trkpt>
      <trkpt lat="44.25778" lon="0.89975">
        <ele>179.6</ele>
        <time>2025-11-20T15:03:09.108Z</time>
      </trkpt>
      <trkpt lat="44.25774" lon="0.89977">
        <ele>179.4</ele>
        <time>2025-11-20T15:03:13.108Z</time>
      </trkpt>
      <trkpt lat="44.25772" lon="0.89976">
        <ele>179.6</ele>
        <time>2025-11-20T15:03:15.108Z</time>
      </trkpt>
      <trkpt lat="44.25768" lon="0.8998">
        <ele>179.2</ele>
        <time>2025-11-20T15:03:19.108Z</time>
      </trkpt>
      <trkpt lat="44.25759" lon="0.89983">
        <ele>178.8</ele>
        <time>2025-11-20T15:03:27.108Z</time>
      </trkpt>
      <trkpt lat="44.25736" lon="0.90001">
        <ele>174.3</ele>
        <time>2025-11-20T15:03:51.108Z</time>
      </trkpt>
      <trkpt lat="44.25728" lon="0.9001">
        <ele>172.3</ele>
        <time>2025-11-20T15:03:59.108Z</time>
      </trkpt>
      <trkpt lat="44.25725" lon="0.90011">
        <ele>171.7</ele>
        <time>2025-11-20T15:04:03.108Z</time>
      </trkpt>
      <trkpt lat="44.2572" lon="0.90018">
        <ele>170.1</ele>
        <time>2025-11-20T15:04:11.108Z</time>
      </trkpt>
      <trkpt lat="44.25716" lon="0.90018">
        <ele>169.5</ele>
        <time>2025-11-20T15:04:15.108Z</time>
      </trkpt>
      <trkpt lat="44.25702" lon="0.9003">
        <ele>166.7</ele>
        <time>2025-11-20T15:04:33.108Z</time>
      </trkpt>
      <trkpt lat="44.25699" lon="0.90034">
        <ele>166.3</ele>
        <time>2025-11-20T15:04:37.108Z</time>
      </trkpt>
      <trkpt lat="44.25698" lon="0.90036">
        <ele>166</ele>
        <time>2025-11-20T15:04:39.108Z</time>
      </trkpt>
      <trkpt lat="44.2569" lon="0.90041">
        <ele>165.2</ele>
        <time>2025-11-20T15:04:45.108Z</time>
      </trkpt>
      <trkpt lat="44.25687" lon="0.90042">
        <ele>164.9</ele>
        <time>2025-11-20T15:04:47.108Z</time>
      </trkpt>
      <trkpt lat="44.25681" lon="0.9004">
        <ele>164.3</ele>
        <time>2025-11-20T15:04:51.108Z</time>
      </trkpt>
      <trkpt lat="44.2568" lon="0.90038">
        <ele>164.2</ele>
        <time>2025-11-20T15:04:53.108Z</time>
      </trkpt>
      <trkpt lat="44.25677" lon="0.90037">
        <ele>164</ele>
        <time>2025-11-20T15:04:55.108Z</time>
      </trkpt>
      <trkpt lat="44.2567" lon="0.90025">
        <ele>163.4</ele>
        <time>2025-11-20T15:05:03.108Z</time>
      </trkpt>
      <trkpt lat="44.25665" lon="0.90021">
        <ele>163.2</ele>
        <time>2025-11-20T15:05:07.108Z</time>
      </trkpt>
      <trkpt lat="44.25658" lon="0.90011">
        <ele>163.1</ele>
        <time>2025-11-20T15:05:15.108Z</time>
      </trkpt>
      <trkpt lat="44.25651" lon="0.89999">
        <ele>162.9</ele>
        <time>2025-11-20T15:05:23.108Z</time>
      </trkpt>
      <trkpt lat="44.25643" lon="0.8999">
        <ele>162.3</ele>
        <time>2025-11-20T15:05:31.108Z</time>
      </trkpt>
      <trkpt lat="44.25638" lon="0.89983">
        <ele>162</ele>
        <time>2025-11-20T15:05:37.108Z</time>
      </trkpt>
      <trkpt lat="44.25635" lon="0.89981">
        <ele>161.9</ele>
        <time>2025-11-20T15:05:39.108Z</time>
      </trkpt>
      <trkpt lat="44.25632" lon="0.89975">
        <ele>161.8</ele>
        <time>2025-11-20T15:05:43.108Z</time>
      </trkpt>
      <trkpt lat="44.25622" lon="0.89945">
        <ele>161.7</ele>
        <time>2025-11-20T15:06:01.108Z</time>
      </trkpt>
      <trkpt lat="44.25618" lon="0.89941">
        <ele>161.5</ele>
        <time>2025-11-20T15:06:05.108Z</time>
      </trkpt>
      <trkpt lat="44.25616" lon="0.89935">
        <ele>161.4</ele>
        <time>2025-11-20T15:06:09.108Z</time>
      </trkpt>
      <trkpt lat="44.25616" lon="0.8993">
        <ele>161.4</ele>
        <time>2025-11-20T15:06:11.108Z</time>
      </trkpt>
      <trkpt lat="44.25614" lon="0.89925">
        <ele>161.2</ele>
        <time>2025-11-20T15:06:15.108Z</time>
      </trkpt>
      <trkpt lat="44.25611" lon="0.8991">
        <ele>161.2</ele>
        <time>2025-11-20T15:06:23.108Z</time>
      </trkpt>
      <trkpt lat="44.2561" lon="0.89905">
        <ele>161.3</ele>
        <time>2025-11-20T15:06:27.108Z</time>
      </trkpt>
      <trkpt lat="44.25603" lon="0.89895">
        <ele>161.2</ele>
        <time>2025-11-20T15:06:35.108Z</time>
      </trkpt>
      <trkpt lat="44.25591" lon="0.89873">
        <ele>160.8</ele>
        <time>2025-11-20T15:06:51.108Z</time>
      </trkpt>
      <trkpt lat="44.25582" lon="0.89852">
        <ele>159.9</ele>
        <time>2025-11-20T15:07:05.108Z</time>
      </trkpt>
      <trkpt lat="44.25581" lon="0.89848">
        <ele>159.9</ele>
        <time>2025-11-20T15:07:09.108Z</time>
      </trkpt>
      <trkpt lat="44.25578" lon="0.89843">
        <ele>159.7</ele>
        <time>2025-11-20T15:07:13.108Z</time>
      </trkpt>
      <trkpt lat="44.25576" lon="0.89833">
        <ele>159.5</ele>
        <time>2025-11-20T15:07:21.108Z</time>
      </trkpt>
      <trkpt lat="44.25568" lon="0.89819">
        <ele>160.2</ele>
        <time>2025-11-20T15:07:33.108Z</time>
      </trkpt>
      <trkpt lat="44.25565" lon="0.89812">
        <ele>160.5</ele>
        <time>2025-11-20T15:07:37.108Z</time>
      </trkpt>
      <trkpt lat="44.25554" lon="0.8979">
        <ele>160</ele>
        <time>2025-11-20T15:07:53.108Z</time>
      </trkpt>
      <trkpt lat="44.25549" lon="0.89776">
        <ele>160.4</ele>
        <time>2025-11-20T15:08:01.108Z</time>
      </trkpt>
      <trkpt lat="44.25543" lon="0.89768">
        <ele>160.4</ele>
        <time>2025-11-20T15:08:07.108Z</time>
      </trkpt>
      <trkpt lat="44.25543" lon="0.89761">
        <ele>160.9</ele>
        <time>2025-11-20T15:08:11.108Z</time>
      </trkpt>
      <trkpt lat="44.25527" lon="0.89735">
        <ele>160</ele>
        <time>2025-11-20T15:08:31.108Z</time>
      </trkpt>
      <trkpt lat="44.25523" lon="0.89724">
        <ele>160.4</ele>
        <time>2025-11-20T15:08:39.108Z</time>
      </trkpt>
      <trkpt lat="44.25516" lon="0.8971">
        <ele>159.9</ele>
        <time>2025-11-20T15:08:55.108Z</time>
      </trkpt>
      <trkpt lat="44.25507" lon="0.89692">
        <ele>159.6</ele>
        <time>2025-11-20T15:09:11.108Z</time>
      </trkpt>
      <trkpt lat="44.25481" lon="0.89625">
        <ele>163.3</ele>
        <time>2025-11-20T15:09:59.108Z</time>
      </trkpt>
      <trkpt lat="44.25478" lon="0.89621">
        <ele>163.8</ele>
        <time>2025-11-20T15:10:03.108Z</time>
      </trkpt>
      <trkpt lat="44.25473" lon="0.8961">
        <ele>165.3</ele>
        <time>2025-11-20T15:10:11.108Z</time>
      </trkpt>
      <trkpt lat="44.25456" lon="0.8958">
        <ele>168.1</ele>
        <time>2025-11-20T15:10:35.108Z</time>
      </trkpt>
      <trkpt lat="44.25449" lon="0.8957">
        <ele>167.6</ele>
        <time>2025-11-20T15:10:43.108Z</time>
      </trkpt>
      <trkpt lat="44.2544" lon="0.89547">
        <ele>168.2</ele>
        <time>2025-11-20T15:10:59.108Z</time>
      </trkpt>
      <trkpt lat="44.25433" lon="0.89529">
        <ele>169.1</ele>
        <time>2025-11-20T15:11:11.108Z</time>
      </trkpt>
      <trkpt lat="44.25427" lon="0.89503">
        <ele>170.3</ele>
        <time>2025-11-20T15:11:27.108Z</time>
      </trkpt>
      <trkpt lat="44.25421" lon="0.89482">
        <ele>172.7</ele>
        <time>2025-11-20T15:11:43.108Z</time>
      </trkpt>
      <trkpt lat="44.25417" lon="0.89473">
        <ele>173.9</ele>
        <time>2025-11-20T15:11:51.117Z</time>
      </trkpt>
      <trkpt lat="44.25381" lon="0.89405">
        <ele>179.3</ele>
        <time>2025-11-20T15:12:55.108Z</time>
      </trkpt>
      <trkpt lat="44.25378" lon="0.89394">
        <ele>180.4</ele>
        <time>2025-11-20T15:13:03.108Z</time>
      </trkpt>
      <trkpt lat="44.25377" lon="0.89384">
        <ele>181.3</ele>
        <time>2025-11-20T15:13:11.108Z</time>
      </trkpt>
      <trkpt lat="44.2537" lon="0.89368">
        <ele>180.8</ele>
        <time>2025-11-20T15:15:27.108Z</time>
      </trkpt>
      <trkpt lat="44.25366" lon="0.89364">
        <ele>180</ele>
        <time>2025-11-20T15:15:31.108Z</time>
      </trkpt>
      <trkpt lat="44.25362" lon="0.89359">
        <ele>179.2</ele>
        <time>2025-11-20T15:15:35.108Z</time>
      </trkpt>
      <trkpt lat="44.25358" lon="0.89347">
        <ele>178.1</ele>
        <time>2025-11-20T15:15:43.108Z</time>
      </trkpt>
      <trkpt lat="44.25355" lon="0.89342">
        <ele>177.4</ele>
        <time>2025-11-20T15:15:47.108Z</time>
      </trkpt>
      <trkpt lat="44.25354" lon="0.89336">
        <ele>177.2</ele>
        <time>2025-11-20T15:15:51.108Z</time>
      </trkpt>
      <trkpt lat="44.25351" lon="0.89327">
        <ele>176</ele>
        <time>2025-11-20T15:15:59.108Z</time>
      </trkpt>
      <trkpt lat="44.25349" lon="0.89319">
        <ele>175.4</ele>
        <time>2025-11-20T15:16:07.108Z</time>
      </trkpt>
      <trkpt lat="44.25346" lon="0.8931">
        <ele>174.4</ele>
        <time>2025-11-20T15:16:17.108Z</time>
      </trkpt>
      <trkpt lat="44.25345" lon="0.89301">
        <ele>173.6</ele>
        <time>2025-11-20T15:16:24.108Z</time>
      </trkpt>
      <trkpt lat="44.25344" lon="0.89288">
        <ele>172</ele>
        <time>2025-11-20T15:16:32.108Z</time>
      </trkpt>
      <trkpt lat="44.25344" lon="0.89273">
        <ele>170.1</ele>
        <time>2025-11-20T15:16:42.108Z</time>
      </trkpt>
      <trkpt lat="44.25347" lon="0.89245">
        <ele>166.9</ele>
        <time>2025-11-20T15:16:58.108Z</time>
      </trkpt>
      <trkpt lat="44.2535" lon="0.89231">
        <ele>165.9</ele>
        <time>2025-11-20T15:17:06.108Z</time>
      </trkpt>
      <trkpt lat="44.25349" lon="0.89222">
        <ele>164.7</ele>
        <time>2025-11-20T15:17:12.108Z</time>
      </trkpt>
      <trkpt lat="44.25351" lon="0.89217">
        <ele>164.8</ele>
        <time>2025-11-20T15:17:16.108Z</time>
      </trkpt>
      <trkpt lat="44.25352" lon="0.89211">
        <ele>164.5</ele>
        <time>2025-11-20T15:17:20.108Z</time>
      </trkpt>
      <trkpt lat="44.25353" lon="0.89202">
        <ele>164</ele>
        <time>2025-11-20T15:17:44.108Z</time>
      </trkpt>
      <trkpt lat="44.25351" lon="0.89199">
        <ele>163.4</ele>
        <time>2025-11-20T15:18:18.108Z</time>
      </trkpt>
      <trkpt lat="44.25345" lon="0.89208">
        <ele>163</ele>
        <time>2025-11-20T15:18:34.108Z</time>
      </trkpt>
      <trkpt lat="44.25338" lon="0.89215">
        <ele>162.2</ele>
        <time>2025-11-20T15:18:40.108Z</time>
      </trkpt>
      <trkpt lat="44.25328" lon="0.89217">
        <ele>161.1</ele>
        <time>2025-11-20T15:18:48.108Z</time>
      </trkpt>
      <trkpt lat="44.25323" lon="0.89217">
        <ele>160.6</ele>
        <time>2025-11-20T15:18:53.108Z</time>
      </trkpt>
      <trkpt lat="44.25306" lon="0.89223">
        <ele>159.1</ele>
        <time>2025-11-20T15:19:07.108Z</time>
      </trkpt>
      <trkpt lat="44.25296" lon="0.89229">
        <ele>158</ele>
        <time>2025-11-20T15:19:17.108Z</time>
      </trkpt>
      <trkpt lat="44.25294" lon="0.89231">
        <ele>157.8</ele>
        <time>2025-11-20T15:19:19.108Z</time>
      </trkpt>
      <trkpt lat="44.2529" lon="0.89234">
        <ele>157.5</ele>
        <time>2025-11-20T15:19:23.108Z</time>
      </trkpt>
      <trkpt lat="44.25283" lon="0.89243">
        <ele>157</ele>
        <time>2025-11-20T15:19:31.108Z</time>
      </trkpt>
      <trkpt lat="44.25279" lon="0.89245">
        <ele>156.8</ele>
        <time>2025-11-20T15:19:35.108Z</time>
      </trkpt>
      <trkpt lat="44.25277" lon="0.89249">
        <ele>156.8</ele>
        <time>2025-11-20T15:19:39.108Z</time>
      </trkpt>
      <trkpt lat="44.25269" lon="0.89255">
        <ele>156.4</ele>
        <time>2025-11-20T15:19:47.108Z</time>
      </trkpt>
      <trkpt lat="44.2526" lon="0.89262">
        <ele>155.7</ele>
        <time>2025-11-20T15:19:55.108Z</time>
      </trkpt>
      <trkpt lat="44.25256" lon="0.89264">
        <ele>155.4</ele>
        <time>2025-11-20T15:19:59.108Z</time>
      </trkpt>
      <trkpt lat="44.25251" lon="0.89268">
        <ele>155.1</ele>
        <time>2025-11-20T15:20:05.108Z</time>
      </trkpt>
      <trkpt lat="44.25249" lon="0.89269">
        <ele>154.8</ele>
        <time>2025-11-20T15:20:07.108Z</time>
      </trkpt>
      <trkpt lat="44.25245" lon="0.89265">
        <ele>154.3</ele>
        <time>2025-11-20T15:20:15.108Z</time>
      </trkpt>
      <trkpt lat="44.25245" lon="0.89266">
        <ele>154.3</ele>
        <time>2025-11-20T15:20:23.108Z</time>
      </trkpt>
      <trkpt lat="44.25241" lon="0.8926">
        <ele>154</ele>
        <time>2025-11-20T15:20:31.108Z</time>
      </trkpt>
      <trkpt lat="44.25236" lon="0.89243">
        <ele>153.4</ele>
        <time>2025-11-20T15:20:43.108Z</time>
      </trkpt>
      <trkpt lat="44.25226" lon="0.89221">
        <ele>152.4</ele>
        <time>2025-11-20T15:20:59.108Z</time>
      </trkpt>
      <trkpt lat="44.25213" lon="0.89184">
        <ele>153.1</ele>
        <time>2025-11-20T15:21:23.108Z</time>
      </trkpt>
      <trkpt lat="44.25204" lon="0.89164">
        <ele>151.9</ele>
        <time>2025-11-20T15:21:37.108Z</time>
      </trkpt>
      <trkpt lat="44.252" lon="0.89159">
        <ele>151.2</ele>
        <time>2025-11-20T15:21:41.108Z</time>
      </trkpt>
      <trkpt lat="44.2519" lon="0.89136">
        <ele>150.4</ele>
        <time>2025-11-20T15:21:57.108Z</time>
      </trkpt>
      <trkpt lat="44.25186" lon="0.89125">
        <ele>150.5</ele>
        <time>2025-11-20T15:22:05.108Z</time>
      </trkpt>
      <trkpt lat="44.25184" lon="0.89122">
        <ele>150.1</ele>
        <time>2025-11-20T15:22:07.108Z</time>
      </trkpt>
      <trkpt lat="44.25175" lon="0.89101">
        <ele>148.5</ele>
        <time>2025-11-20T15:22:21.108Z</time>
      </trkpt>
      <trkpt lat="44.25171" lon="0.89079">
        <ele>147.4</ele>
        <time>2025-11-20T15:22:33.108Z</time>
      </trkpt>
      <trkpt lat="44.25166" lon="0.89068">
        <ele>147</ele>
        <time>2025-11-20T15:22:41.108Z</time>
      </trkpt>
      <trkpt lat="44.25165" lon="0.89065">
        <ele>147.1</ele>
        <time>2025-11-20T15:22:43.108Z</time>
      </trkpt>
      <trkpt lat="44.25161" lon="0.8906">
        <ele>146.9</ele>
        <time>2025-11-20T15:22:47.108Z</time>
      </trkpt>
      <trkpt lat="44.2516" lon="0.89057">
        <ele>146.9</ele>
        <time>2025-11-20T15:22:49.108Z</time>
      </trkpt>
      <trkpt lat="44.25157" lon="0.89055">
        <ele>146.6</ele>
        <time>2025-11-20T15:22:51.108Z</time>
      </trkpt>
      <trkpt lat="44.25157" lon="0.89044">
        <ele>146.5</ele>
        <time>2025-11-20T15:22:57.108Z</time>
      </trkpt>
      <trkpt lat="44.25153" lon="0.89035">
        <ele>146</ele>
        <time>2025-11-20T15:23:03.108Z</time>
      </trkpt>
      <trkpt lat="44.25152" lon="0.89029">
        <ele>145.9</ele>
        <time>2025-11-20T15:23:07.108Z</time>
      </trkpt>
      <trkpt lat="44.2515" lon="0.89022">
        <ele>145.6</ele>
        <time>2025-11-20T15:23:11.108Z</time>
      </trkpt>
      <trkpt lat="44.25148" lon="0.89019">
        <ele>145.2</ele>
        <time>2025-11-20T15:23:15.108Z</time>
      </trkpt>
      <trkpt lat="44.25147" lon="0.89012">
        <ele>145</ele>
        <time>2025-11-20T15:23:19.108Z</time>
      </trkpt>
      <trkpt lat="44.2515" lon="0.89001">
        <ele>145.2</ele>
        <time>2025-11-20T15:23:27.108Z</time>
      </trkpt>
      <trkpt lat="44.25151" lon="0.88987">
        <ele>145.5</ele>
        <time>2025-11-20T15:23:35.108Z</time>
      </trkpt>
      <trkpt lat="44.25152" lon="0.88962">
        <ele>145.8</ele>
        <time>2025-11-20T15:23:51.108Z</time>
      </trkpt>
      <trkpt lat="44.25151" lon="0.88951">
        <ele>145.6</ele>
        <time>2025-11-20T15:23:59.108Z</time>
      </trkpt>
      <trkpt lat="44.25149" lon="0.88947">
        <ele>145.2</ele>
        <time>2025-11-20T15:24:03.108Z</time>
      </trkpt>
      <trkpt lat="44.25146" lon="0.88939">
        <ele>144.3</ele>
        <time>2025-11-20T15:24:31.108Z</time>
      </trkpt>
      <trkpt lat="44.25146" lon="0.88932">
        <ele>144.1</ele>
        <time>2025-11-20T15:24:35.108Z</time>
      </trkpt>
      <trkpt lat="44.25145" lon="0.88926">
        <ele>143.6</ele>
        <time>2025-11-20T15:24:39.108Z</time>
      </trkpt>
      <trkpt lat="44.25145" lon="0.88913">
        <ele>143.2</ele>
        <time>2025-11-20T15:24:47.108Z</time>
      </trkpt>
      <trkpt lat="44.25148" lon="0.8889">
        <ele>143.6</ele>
        <time>2025-11-20T15:25:07.108Z</time>
      </trkpt>
      <trkpt lat="44.25144" lon="0.8888">
        <ele>143</ele>
        <time>2025-11-20T15:25:15.108Z</time>
      </trkpt>
      <trkpt lat="44.25139" lon="0.88841">
        <ele>143.4</ele>
        <time>2025-11-20T15:25:39.108Z</time>
      </trkpt>
      <trkpt lat="44.25132" lon="0.88818">
        <ele>145.4</ele>
        <time>2025-11-20T15:25:55.108Z</time>
      </trkpt>
      <trkpt lat="44.25125" lon="0.88801">
        <ele>146.1</ele>
        <time>2025-11-20T15:26:07.108Z</time>
      </trkpt>
      <trkpt lat="44.25123" lon="0.888">
        <ele>145.9</ele>
        <time>2025-11-20T15:26:09.108Z</time>
      </trkpt>
      <trkpt lat="44.25121" lon="0.88787">
        <ele>146</ele>
        <time>2025-11-20T15:26:41.108Z</time>
      </trkpt>
      <trkpt lat="44.25118" lon="0.88784">
        <ele>145.8</ele>
        <time>2025-11-20T15:30:09.108Z</time>
      </trkpt>
      <trkpt lat="44.25114" lon="0.88778">
        <ele>145.4</ele>
        <time>2025-11-20T15:31:25.108Z</time>
      </trkpt>
      <trkpt lat="44.25105" lon="0.88733">
        <ele>143.9</ele>
        <time>2025-11-20T15:31:51.108Z</time>
      </trkpt>
      <trkpt lat="44.25093" lon="0.8868">
        <ele>142.5</ele>
        <time>2025-11-20T15:32:23.108Z</time>
      </trkpt>
      <trkpt lat="44.25087" lon="0.88664">
        <ele>142.5</ele>
        <time>2025-11-20T15:32:35.108Z</time>
      </trkpt>
      <trkpt lat="44.25085" lon="0.88661">
        <ele>142.4</ele>
        <time>2025-11-20T15:32:39.108Z</time>
      </trkpt>
      <trkpt lat="44.25082" lon="0.88661">
        <ele>142.1</ele>
        <time>2025-11-20T15:32:41.108Z</time>
      </trkpt>
      <trkpt lat="44.2508" lon="0.88656">
        <ele>142</ele>
        <time>2025-11-20T15:32:45.108Z</time>
      </trkpt>
      <trkpt lat="44.25078" lon="0.88649">
        <ele>142</ele>
        <time>2025-11-20T15:33:17.108Z</time>
      </trkpt>
      <trkpt lat="44.25068" lon="0.88629">
        <ele>141.2</ele>
        <time>2025-11-20T15:33:39.108Z</time>
      </trkpt>
      <trkpt lat="44.25066" lon="0.88626">
        <ele>140.8</ele>
        <time>2025-11-20T15:33:47.108Z</time>
      </trkpt>
      <trkpt lat="44.25062" lon="0.88619">
        <ele>140.2</ele>
        <time>2025-11-20T15:33:55.108Z</time>
      </trkpt>
      <trkpt lat="44.25057" lon="0.88613">
        <ele>139.2</ele>
        <time>2025-11-20T15:34:03.108Z</time>
      </trkpt>
      <trkpt lat="44.25047" lon="0.88606">
        <ele>139.2</ele>
        <time>2025-11-20T15:34:13.108Z</time>
      </trkpt>
      <trkpt lat="44.25041" lon="0.88599">
        <ele>139.4</ele>
        <time>2025-11-20T15:34:21.108Z</time>
      </trkpt>
      <trkpt lat="44.25034" lon="0.88592">
        <ele>139.3</ele>
        <time>2025-11-20T15:34:29.108Z</time>
      </trkpt>
      <trkpt lat="44.25027" lon="0.88587">
        <ele>139</ele>
        <time>2025-11-20T15:34:35.108Z</time>
      </trkpt>
      <trkpt lat="44.2502" lon="0.88578">
        <ele>139.1</ele>
        <time>2025-11-20T15:34:43.108Z</time>
      </trkpt>
      <trkpt lat="44.25014" lon="0.88561">
        <ele>139.4</ele>
        <time>2025-11-20T15:34:55.108Z</time>
      </trkpt>
      <trkpt lat="44.25011" lon="0.88557">
        <ele>139.4</ele>
        <time>2025-11-20T15:34:59.108Z</time>
      </trkpt>
      <trkpt lat="44.25005" lon="0.8854">
        <ele>139.6</ele>
        <time>2025-11-20T15:35:11.108Z</time>
      </trkpt>
      <trkpt lat="44.24998" lon="0.88531">
        <ele>139</ele>
        <time>2025-11-20T15:35:18.108Z</time>
      </trkpt>
      <trkpt lat="44.2499" lon="0.88505">
        <ele>140.1</ele>
        <time>2025-11-20T15:35:26.108Z</time>
      </trkpt>
      <trkpt lat="44.24987" lon="0.88503">
        <ele>139.9</ele>
        <time>2025-11-20T15:35:28.108Z</time>
      </trkpt>
      <trkpt lat="44.24984" lon="0.88495">
        <ele>140.1</ele>
        <time>2025-11-20T15:35:31.108Z</time>
      </trkpt>
      <trkpt lat="44.24983" lon="0.88492">
        <ele>140.2</ele>
        <time>2025-11-20T15:35:33.108Z</time>
      </trkpt>
      <trkpt lat="44.2498" lon="0.88483">
        <ele>140.2</ele>
        <time>2025-11-20T15:35:38.108Z</time>
      </trkpt>
      <trkpt lat="44.24976" lon="0.88484">
        <ele>139.6</ele>
        <time>2025-11-20T15:35:42.108Z</time>
      </trkpt>
      <trkpt lat="44.24973" lon="0.88481">
        <ele>139</ele>
        <time>2025-11-20T15:35:46.108Z</time>
      </trkpt>
      <trkpt lat="44.24964" lon="0.8847">
        <ele>138.8</ele>
        <time>2025-11-20T15:36:06.108Z</time>
      </trkpt>
      <trkpt lat="44.24959" lon="0.88456">
        <ele>138.9</ele>
        <time>2025-11-20T15:36:34.108Z</time>
      </trkpt>
      <trkpt lat="44.24962" lon="0.88439">
        <ele>140</ele>
        <time>2025-11-20T15:36:42.108Z</time>
      </trkpt>
      <trkpt lat="44.24962" lon="0.88408">
        <ele>142.9</ele>
        <time>2025-11-20T15:37:02.108Z</time>
      </trkpt>
      <trkpt lat="44.24963" lon="0.88394">
        <ele>144.2</ele>
        <time>2025-11-20T15:37:14.108Z</time>
      </trkpt>
      <trkpt lat="44.24963" lon="0.88385">
        <ele>145</ele>
        <time>2025-11-20T15:37:22.108Z</time>
      </trkpt>
      <trkpt lat="44.24963" lon="0.88375">
        <ele>146.1</ele>
        <time>2025-11-20T15:37:30.108Z</time>
      </trkpt>
      <trkpt lat="44.24963" lon="0.88369">
        <ele>146.5</ele>
        <time>2025-11-20T15:37:34.108Z</time>
      </trkpt>
      <trkpt lat="44.24966" lon="0.88344">
        <ele>147.7</ele>
        <time>2025-11-20T15:37:52.108Z</time>
      </trkpt>
      <trkpt lat="44.24968" lon="0.88342">
        <ele>148.2</ele>
        <time>2025-11-20T15:37:54.108Z</time>
      </trkpt>
      <trkpt lat="44.2497" lon="0.88336">
        <ele>148.5</ele>
        <time>2025-11-20T15:37:58.108Z</time>
      </trkpt>
      <trkpt lat="44.24974" lon="0.88328">
        <ele>149.4</ele>
        <time>2025-11-20T15:38:04.108Z</time>
      </trkpt>
      <trkpt lat="44.24975" lon="0.88322">
        <ele>149.4</ele>
        <time>2025-11-20T15:38:08.108Z</time>
      </trkpt>
      <trkpt lat="44.24982" lon="0.88304">
        <ele>150</ele>
        <time>2025-11-20T15:38:24.108Z</time>
      </trkpt>
      <trkpt lat="44.24985" lon="0.883">
        <ele>150.2</ele>
        <time>2025-11-20T15:38:28.108Z</time>
      </trkpt>
      <trkpt lat="44.24987" lon="0.88294">
        <ele>150.1</ele>
        <time>2025-11-20T15:38:32.108Z</time>
      </trkpt>
      <trkpt lat="44.24989" lon="0.88293">
        <ele>150.5</ele>
        <time>2025-11-20T15:38:34.108Z</time>
      </trkpt>
      <trkpt lat="44.24989" lon="0.88289">
        <ele>150.2</ele>
        <time>2025-11-20T15:38:36.108Z</time>
      </trkpt>
      <trkpt lat="44.24993" lon="0.88282">
        <ele>150.5</ele>
        <time>2025-11-20T15:38:44.108Z</time>
      </trkpt>
      <trkpt lat="44.24996" lon="0.88278">
        <ele>150.9</ele>
        <time>2025-11-20T15:38:50.108Z</time>
      </trkpt>
      <trkpt lat="44.24998" lon="0.88276">
        <ele>151.3</ele>
        <time>2025-11-20T15:38:52.108Z</time>
      </trkpt>
      <trkpt lat="44.25001" lon="0.88277">
        <ele>151.9</ele>
        <time>2025-11-20T15:38:54.108Z</time>
      </trkpt>
      <trkpt lat="44.25009" lon="0.88266">
        <ele>151.6</ele>
        <time>2025-11-20T15:39:04.108Z</time>
      </trkpt>
      <trkpt lat="44.25012" lon="0.88265">
        <ele>151.9</ele>
        <time>2025-11-20T15:39:06.108Z</time>
      </trkpt>
      <trkpt lat="44.25024" lon="0.88246">
        <ele>152.3</ele>
        <time>2025-11-20T15:39:22.108Z</time>
      </trkpt>
      <trkpt lat="44.25031" lon="0.88237">
        <ele>152.1</ele>
        <time>2025-11-20T15:39:30.108Z</time>
      </trkpt>
      <trkpt lat="44.25035" lon="0.88231">
        <ele>151.7</ele>
        <time>2025-11-20T15:39:35.108Z</time>
      </trkpt>
      <trkpt lat="44.2504" lon="0.88228">
        <ele>151.9</ele>
        <time>2025-11-20T15:39:39.108Z</time>
      </trkpt>
      <trkpt lat="44.25044" lon="0.88223">
        <ele>152</ele>
        <time>2025-11-20T15:39:43.108Z</time>
      </trkpt>
      <trkpt lat="44.25048" lon="0.8822">
        <ele>152.3</ele>
        <time>2025-11-20T15:39:47.108Z</time>
      </trkpt>
      <trkpt lat="44.25051" lon="0.88217">
        <ele>152.4</ele>
        <time>2025-11-20T15:39:49.108Z</time>
      </trkpt>
      <trkpt lat="44.25059" lon="0.88213">
        <ele>153.1</ele>
        <time>2025-11-20T15:39:57.108Z</time>
      </trkpt>
      <trkpt lat="44.25069" lon="0.88203">
        <ele>153.6</ele>
        <time>2025-11-20T15:40:06.108Z</time>
      </trkpt>
      <trkpt lat="44.25072" lon="0.88203">
        <ele>154.1</ele>
        <time>2025-11-20T15:40:08.108Z</time>
      </trkpt>
      <trkpt lat="44.25079" lon="0.88195">
        <ele>155</ele>
        <time>2025-11-20T15:40:16.108Z</time>
      </trkpt>
      <trkpt lat="44.25081" lon="0.88191">
        <ele>154.9</ele>
        <time>2025-11-20T15:40:20.108Z</time>
      </trkpt>
      <trkpt lat="44.25083" lon="0.88186">
        <ele>154.4</ele>
        <time>2025-11-20T15:40:24.108Z</time>
      </trkpt>
      <trkpt lat="44.25091" lon="0.88175">
        <ele>153.8</ele>
        <time>2025-11-20T15:40:36.108Z</time>
      </trkpt>
      <trkpt lat="44.25091" lon="0.88173">
        <ele>153.5</ele>
        <time>2025-11-20T15:40:38.108Z</time>
      </trkpt>
      <trkpt lat="44.25097" lon="0.88164">
        <ele>154</ele>
        <time>2025-11-20T15:40:46.109Z</time>
      </trkpt>
      <trkpt lat="44.25103" lon="0.88151">
        <ele>155.2</ele>
        <time>2025-11-20T15:40:56.108Z</time>
      </trkpt>
      <trkpt lat="44.25105" lon="0.88149">
        <ele>155.8</ele>
        <time>2025-11-20T15:40:58.108Z</time>
      </trkpt>
      <trkpt lat="44.25109" lon="0.88138">
        <ele>157.2</ele>
        <time>2025-11-20T15:41:08.108Z</time>
      </trkpt>
      <trkpt lat="44.25112" lon="0.88133">
        <ele>158</ele>
        <time>2025-11-20T15:41:12.108Z</time>
      </trkpt>
      <trkpt lat="44.25115" lon="0.88128">
        <ele>158</ele>
        <time>2025-11-20T15:41:16.108Z</time>
      </trkpt>
      <trkpt lat="44.25126" lon="0.88121">
        <ele>158</ele>
        <time>2025-11-20T15:41:26.108Z</time>
      </trkpt>
      <trkpt lat="44.25136" lon="0.88104">
        <ele>158</ele>
        <time>2025-11-20T15:42:10.108Z</time>
      </trkpt>
      <trkpt lat="44.25144" lon="0.88094">
        <ele>158</ele>
        <time>2025-11-20T15:42:18.108Z</time>
      </trkpt>
      <trkpt lat="44.25152" lon="0.88091">
        <ele>158</ele>
        <time>2025-11-20T15:42:23.108Z</time>
      </trkpt>
      <trkpt lat="44.25163" lon="0.88075">
        <ele>158</ele>
        <time>2025-11-20T15:42:35.108Z</time>
      </trkpt>
      <trkpt lat="44.25167" lon="0.88071">
        <ele>158</ele>
        <time>2025-11-20T15:42:39.108Z</time>
      </trkpt>
      <trkpt lat="44.25179" lon="0.8805">
        <ele>158.8</ele>
        <time>2025-11-20T15:42:55.108Z</time>
      </trkpt>
      <trkpt lat="44.25183" lon="0.88032">
        <ele>158.7</ele>
        <time>2025-11-20T15:43:07.108Z</time>
      </trkpt>
      <trkpt lat="44.25185" lon="0.88027">
        <ele>158.7</ele>
        <time>2025-11-20T15:43:11.108Z</time>
      </trkpt>
      <trkpt lat="44.25192" lon="0.88003">
        <ele>158.9</ele>
        <time>2025-11-20T15:43:27.108Z</time>
      </trkpt>
      <trkpt lat="44.25193" lon="0.87994">
        <ele>158.9</ele>
        <time>2025-11-20T15:43:33.108Z</time>
      </trkpt>
      <trkpt lat="44.25193" lon="0.87978">
        <ele>158.9</ele>
        <time>2025-11-20T15:43:41.108Z</time>
      </trkpt>
      <trkpt lat="44.25194" lon="0.87971">
        <ele>159</ele>
        <time>2025-11-20T15:43:45.108Z</time>
      </trkpt>
      <trkpt lat="44.25194" lon="0.87964">
        <ele>159.3</ele>
        <time>2025-11-20T15:43:49.108Z</time>
      </trkpt>
      <trkpt lat="44.25196" lon="0.87959">
        <ele>159.5</ele>
        <time>2025-11-20T15:43:53.108Z</time>
      </trkpt>
      <trkpt lat="44.25197" lon="0.87957">
        <ele>159.6</ele>
        <time>2025-11-20T15:43:55.108Z</time>
      </trkpt>
      <trkpt lat="44.25198" lon="0.87944">
        <ele>160.2</ele>
        <time>2025-11-20T15:44:03.108Z</time>
      </trkpt>
      <trkpt lat="44.25202" lon="0.87921">
        <ele>162.8</ele>
        <time>2025-11-20T15:44:19.108Z</time>
      </trkpt>
      <trkpt lat="44.25202" lon="0.87908">
        <ele>164.2</ele>
        <time>2025-11-20T15:44:27.108Z</time>
      </trkpt>
      <trkpt lat="44.25202" lon="0.87896">
        <ele>165.5</ele>
        <time>2025-11-20T15:44:35.108Z</time>
      </trkpt>
      <trkpt lat="44.25203" lon="0.87886">
        <ele>166.8</ele>
        <time>2025-11-20T15:44:43.108Z</time>
      </trkpt>
      <trkpt lat="44.25206" lon="0.8788">
        <ele>168.2</ele>
        <time>2025-11-20T15:44:47.108Z</time>
      </trkpt>
      <trkpt lat="44.25207" lon="0.87875">
        <ele>169.3</ele>
        <time>2025-11-20T15:44:51.108Z</time>
      </trkpt>
      <trkpt lat="44.25215" lon="0.87867">
        <ele>170.9</ele>
        <time>2025-11-20T15:45:01.108Z</time>
      </trkpt>
      <trkpt lat="44.25221" lon="0.87866">
        <ele>171.2</ele>
        <time>2025-11-20T15:45:09.108Z</time>
      </trkpt>
      <trkpt lat="44.25225" lon="0.87864">
        <ele>171.8</ele>
        <time>2025-11-20T15:45:13.108Z</time>
      </trkpt>
      <trkpt lat="44.25231" lon="0.87863">
        <ele>172.6</ele>
        <time>2025-11-20T15:45:21.108Z</time>
      </trkpt>
      <trkpt lat="44.25239" lon="0.87861">
        <ele>173.8</ele>
        <time>2025-11-20T15:45:29.108Z</time>
      </trkpt>
      <trkpt lat="44.25242" lon="0.87861">
        <ele>174.2</ele>
        <time>2025-11-20T15:45:33.108Z</time>
      </trkpt>
      <trkpt lat="44.25246" lon="0.8786">
        <ele>174.7</ele>
        <time>2025-11-20T15:45:37.108Z</time>
      </trkpt>
      <trkpt lat="44.25256" lon="0.87859">
        <ele>176.3</ele>
        <time>2025-11-20T15:45:53.108Z</time>
      </trkpt>
      <trkpt lat="44.25272" lon="0.87861">
        <ele>178.2</ele>
        <time>2025-11-20T15:46:26.108Z</time>
      </trkpt>
      <trkpt lat="44.25282" lon="0.87863">
        <ele>178.8</ele>
        <time>2025-11-20T15:46:36.108Z</time>
      </trkpt>
      <trkpt lat="44.25289" lon="0.87862">
        <ele>179.5</ele>
        <time>2025-11-20T15:46:42.108Z</time>
      </trkpt>
      <trkpt lat="44.25304" lon="0.87858">
        <ele>181.8</ele>
        <time>2025-11-20T15:46:57.108Z</time>
      </trkpt>
      <trkpt lat="44.25307" lon="0.87854">
        <ele>182.9</ele>
        <time>2025-11-20T15:47:01.108Z</time>
      </trkpt>
      <trkpt lat="44.2531" lon="0.87852">
        <ele>183.2</ele>
        <time>2025-11-20T15:47:05.108Z</time>
      </trkpt>
      <trkpt lat="44.25315" lon="0.87845">
        <ele>184.7</ele>
        <time>2025-11-20T15:47:13.108Z</time>
      </trkpt>
      <trkpt lat="44.25317" lon="0.87843">
        <ele>185.1</ele>
        <time>2025-11-20T15:47:17.108Z</time>
      </trkpt>
      <trkpt lat="44.2532" lon="0.87842">
        <ele>184.9</ele>
        <time>2025-11-20T15:47:21.108Z</time>
      </trkpt>
      <trkpt lat="44.25321" lon="0.87839">
        <ele>185.8</ele>
        <time>2025-11-20T15:47:29.108Z</time>
      </trkpt>
      <trkpt lat="44.25323" lon="0.87839">
        <ele>185.5</ele>
        <time>2025-11-20T15:47:35.108Z</time>
      </trkpt>
      <trkpt lat="44.25329" lon="0.87832">
        <ele>186.7</ele>
        <time>2025-11-20T15:48:07.108Z</time>
      </trkpt>
      <trkpt lat="44.25333" lon="0.8783">
        <ele>186.6</ele>
        <time>2025-11-20T15:48:11.108Z</time>
      </trkpt>
      <trkpt lat="44.25354" lon="0.87808">
        <ele>185.9</ele>
        <time>2025-11-20T15:48:35.108Z</time>
      </trkpt>
      <trkpt lat="44.25361" lon="0.87799">
        <ele>186.5</ele>
        <time>2025-11-20T15:48:43.108Z</time>
      </trkpt>
      <trkpt lat="44.25363" lon="0.87794">
        <ele>186.9</ele>
        <time>2025-11-20T15:48:47.108Z</time>
      </trkpt>
      <trkpt lat="44.25369" lon="0.87787">
        <ele>186.7</ele>
        <time>2025-11-20T15:48:55.108Z</time>
      </trkpt>
      <trkpt lat="44.25371" lon="0.87781">
        <ele>187.1</ele>
        <time>2025-11-20T15:48:59.108Z</time>
      </trkpt>
      <trkpt lat="44.25379" lon="0.87772">
        <ele>185.8</ele>
        <time>2025-11-20T15:49:07.108Z</time>
      </trkpt>
      <trkpt lat="44.25384" lon="0.87763">
        <ele>185.4</ele>
        <time>2025-11-20T15:49:13.108Z</time>
      </trkpt>
      <trkpt lat="44.25386" lon="0.87756">
        <ele>185.7</ele>
        <time>2025-11-20T15:49:17.108Z</time>
      </trkpt>
      <trkpt lat="44.25393" lon="0.87744">
        <ele>186.6</ele>
        <time>2025-11-20T15:49:25.108Z</time>
      </trkpt>
      <trkpt lat="44.25396" lon="0.8774">
        <ele>186.8</ele>
        <time>2025-11-20T15:49:29.108Z</time>
      </trkpt>
      <trkpt lat="44.25402" lon="0.87736">
        <ele>186.8</ele>
        <time>2025-11-20T15:49:33.108Z</time>
      </trkpt>
      <trkpt lat="44.25407" lon="0.87736">
        <ele>186.5</ele>
        <time>2025-11-20T15:49:37.108Z</time>
      </trkpt>
      <trkpt lat="44.25412" lon="0.87737">
        <ele>186.2</ele>
        <time>2025-11-20T15:49:41.108Z</time>
      </trkpt>
      <trkpt lat="44.25417" lon="0.87742">
        <ele>186.1</ele>
        <time>2025-11-20T15:49:45.108Z</time>
      </trkpt>
      <trkpt lat="44.25419" lon="0.87748">
        <ele>186.5</ele>
        <time>2025-11-20T15:49:49.108Z</time>
      </trkpt>
      <trkpt lat="44.25423" lon="0.87755">
        <ele>186.9</ele>
        <time>2025-11-20T15:49:55.108Z</time>
      </trkpt>
      <trkpt lat="44.25424" lon="0.87762">
        <ele>186.6</ele>
        <time>2025-11-20T15:49:59.108Z</time>
      </trkpt>
      <trkpt lat="44.25424" lon="0.87767">
        <ele>186.3</ele>
        <time>2025-11-20T15:50:03.108Z</time>
      </trkpt>
      <trkpt lat="44.25429" lon="0.87786">
        <ele>186.8</ele>
        <time>2025-11-20T15:50:15.108Z</time>
      </trkpt>
      <trkpt lat="44.25431" lon="0.878">
        <ele>186.8</ele>
        <time>2025-11-20T15:50:23.108Z</time>
      </trkpt>
      <trkpt lat="44.25436" lon="0.87813">
        <ele>188.4</ele>
        <time>2025-11-20T15:50:31.108Z</time>
      </trkpt>
      <trkpt lat="44.25442" lon="0.8784">
        <ele>191.2</ele>
        <time>2025-11-20T15:50:47.108Z</time>
      </trkpt>
      <trkpt lat="44.25445" lon="0.87868">
        <ele>193.1</ele>
        <time>2025-11-20T15:51:03.108Z</time>
      </trkpt>
      <trkpt lat="44.25445" lon="0.8788">
        <ele>193</ele>
        <time>2025-11-20T15:51:10.108Z</time>
      </trkpt>
      <trkpt lat="44.25448" lon="0.87885">
        <ele>193.3</ele>
        <time>2025-11-20T15:51:14.108Z</time>
      </trkpt>
      <trkpt lat="44.25451" lon="0.87897">
        <ele>193</ele>
        <time>2025-11-20T15:51:22.108Z</time>
      </trkpt>
      <trkpt lat="44.25454" lon="0.87909">
        <ele>192.8</ele>
        <time>2025-11-20T15:51:30.109Z</time>
      </trkpt>
      <trkpt lat="44.25459" lon="0.87927">
        <ele>192.2</ele>
        <time>2025-11-20T15:51:42.108Z</time>
      </trkpt>
      <trkpt lat="44.2546" lon="0.87934">
        <ele>191.7</ele>
        <time>2025-11-20T15:51:46.108Z</time>
      </trkpt>
      <trkpt lat="44.25467" lon="0.87959">
        <ele>192.4</ele>
        <time>2025-11-20T15:52:02.108Z</time>
      </trkpt>
      <trkpt lat="44.25472" lon="0.8797">
        <ele>193</ele>
        <time>2025-11-20T15:52:10.108Z</time>
      </trkpt>
      <trkpt lat="44.25491" lon="0.88002">
        <ele>194.7</ele>
        <time>2025-11-20T15:52:34.108Z</time>
      </trkpt>
      <trkpt lat="44.25497" lon="0.8801">
        <ele>195.3</ele>
        <time>2025-11-20T15:52:42.108Z</time>
      </trkpt>
      <trkpt lat="44.25509" lon="0.88028">
        <ele>196.7</ele>
        <time>2025-11-20T15:52:58.108Z</time>
      </trkpt>
      <trkpt lat="44.25522" lon="0.88047">
        <ele>197.9</ele>
        <time>2025-11-20T15:53:14.108Z</time>
      </trkpt>
      <trkpt lat="44.25527" lon="0.88056">
        <ele>198</ele>
        <time>2025-11-20T15:53:22.108Z</time>
      </trkpt>
      <trkpt lat="44.25531" lon="0.88068">
        <ele>199.1</ele>
        <time>2025-11-20T15:53:30.108Z</time>
      </trkpt>
      <trkpt lat="44.25529" lon="0.88082">
        <ele>199.9</ele>
        <time>2025-11-20T15:53:38.108Z</time>
      </trkpt>
      <trkpt lat="44.25528" lon="0.88087">
        <ele>200.1</ele>
        <time>2025-11-20T15:53:42.108Z</time>
      </trkpt>
      <trkpt lat="44.25499" lon="0.88129">
        <ele>201.3</ele>
        <time>2025-11-20T15:54:14.108Z</time>
      </trkpt>
      <trkpt lat="44.25496" lon="0.88134">
        <ele>201.6</ele>
        <time>2025-11-20T15:54:18.108Z</time>
      </trkpt>
      <trkpt lat="44.25495" lon="0.88141">
        <ele>201.9</ele>
        <time>2025-11-20T15:54:22.108Z</time>
      </trkpt>
      <trkpt lat="44.25495" lon="0.88148">
        <ele>202.1</ele>
        <time>2025-11-20T15:54:26.108Z</time>
      </trkpt>
      <trkpt lat="44.25497" lon="0.88154">
        <ele>202.4</ele>
        <time>2025-11-20T15:54:30.108Z</time>
      </trkpt>
      <trkpt lat="44.25502" lon="0.88166">
        <ele>203.1</ele>
        <time>2025-11-20T15:54:38.108Z</time>
      </trkpt>
      <trkpt lat="44.25509" lon="0.88175">
        <ele>203.6</ele>
        <time>2025-11-20T15:54:46.108Z</time>
      </trkpt>
      <trkpt lat="44.25525" lon="0.882">
        <ele>205.1</ele>
        <time>2025-11-20T15:55:06.108Z</time>
      </trkpt>
      <trkpt lat="44.25526" lon="0.88204">
        <ele>205.3</ele>
        <time>2025-11-20T15:55:09.108Z</time>
      </trkpt>
      <trkpt lat="44.25531" lon="0.88211">
        <ele>205.8</ele>
        <time>2025-11-20T15:55:15.108Z</time>
      </trkpt>
      <trkpt lat="44.25533" lon="0.88217">
        <ele>206.2</ele>
        <time>2025-11-20T15:55:20.108Z</time>
      </trkpt>
      <trkpt lat="44.25538" lon="0.88222">
        <ele>206.7</ele>
        <time>2025-11-20T15:55:24.108Z</time>
      </trkpt>
      <trkpt lat="44.25542" lon="0.88231">
        <ele>207.6</ele>
        <time>2025-11-20T15:55:30.108Z</time>
      </trkpt>
      <trkpt lat="44.25548" lon="0.8824">
        <ele>208.7</ele>
        <time>2025-11-20T15:55:38.108Z</time>
      </trkpt>
      <trkpt lat="44.25565" lon="0.88268">
        <ele>211.7</ele>
        <time>2025-11-20T15:56:02.108Z</time>
      </trkpt>
      <trkpt lat="44.2557" lon="0.88277">
        <ele>212.5</ele>
        <time>2025-11-20T15:56:10.108Z</time>
      </trkpt>
      <trkpt lat="44.25576" lon="0.88286">
        <ele>213.2</ele>
        <time>2025-11-20T15:56:18.108Z</time>
      </trkpt>
      <trkpt lat="44.25581" lon="0.8829">
        <ele>213.7</ele>
        <time>2025-11-20T15:56:22.108Z</time>
      </trkpt>
      <trkpt lat="44.25587" lon="0.88299">
        <ele>214.6</ele>
        <time>2025-11-20T15:56:30.108Z</time>
      </trkpt>
      <trkpt lat="44.25589" lon="0.88304">
        <ele>215.1</ele>
        <time>2025-11-20T15:56:34.108Z</time>
      </trkpt>
      <trkpt lat="44.25603" lon="0.88319">
        <ele>216.2</ele>
        <time>2025-11-20T15:56:48.108Z</time>
      </trkpt>
      <trkpt lat="44.25608" lon="0.88322">
        <ele>216.5</ele>
        <time>2025-11-20T15:56:52.108Z</time>
      </trkpt>
      <trkpt lat="44.25611" lon="0.88328">
        <ele>216.8</ele>
        <time>2025-11-20T15:56:56.108Z</time>
      </trkpt>
      <trkpt lat="44.25616" lon="0.88335">
        <ele>217.2</ele>
        <time>2025-11-20T15:57:02.108Z</time>
      </trkpt>
      <trkpt lat="44.25634" lon="0.88353">
        <ele>218.5</ele>
        <time>2025-11-20T15:57:22.108Z</time>
      </trkpt>
      <trkpt lat="44.25641" lon="0.88361">
        <ele>219.1</ele>
        <time>2025-11-20T15:57:30.108Z</time>
      </trkpt>
      <trkpt lat="44.25654" lon="0.88369">
        <ele>219.7</ele>
        <time>2025-11-20T15:57:42.108Z</time>
      </trkpt>
      <trkpt lat="44.25664" lon="0.88372">
        <ele>219.9</ele>
        <time>2025-11-20T15:57:50.108Z</time>
      </trkpt>
      <trkpt lat="44.2567" lon="0.88376">
        <ele>219.9</ele>
        <time>2025-11-20T15:57:58.108Z</time>
      </trkpt>
      <trkpt lat="44.25675" lon="0.88376">
        <ele>219.7</ele>
        <time>2025-11-20T15:58:04.108Z</time>
      </trkpt>
      <trkpt lat="44.25692" lon="0.88382">
        <ele>219.1</ele>
        <time>2025-11-20T15:58:18.108Z</time>
      </trkpt>
      <trkpt lat="44.25708" lon="0.88381">
        <ele>218.7</ele>
        <time>2025-11-20T15:58:30.108Z</time>
      </trkpt>
      <trkpt lat="44.25719" lon="0.88379">
        <ele>218.4</ele>
        <time>2025-11-20T15:58:38.108Z</time>
      </trkpt>
      <trkpt lat="44.25723" lon="0.88379">
        <ele>218.3</ele>
        <time>2025-11-20T15:58:42.108Z</time>
      </trkpt>
      <trkpt lat="44.25745" lon="0.88376">
        <ele>217.7</ele>
        <time>2025-11-20T15:58:58.108Z</time>
      </trkpt>
      <trkpt lat="44.25768" lon="0.8837">
        <ele>217.2</ele>
        <time>2025-11-20T15:59:18.108Z</time>
      </trkpt>
      <trkpt lat="44.25777" lon="0.8837">
        <ele>217</ele>
        <time>2025-11-20T15:59:26.108Z</time>
      </trkpt>
      <trkpt lat="44.25786" lon="0.88368">
        <ele>216.7</ele>
        <time>2025-11-20T15:59:34.108Z</time>
      </trkpt>
      <trkpt lat="44.25796" lon="0.88368">
        <ele>216.3</ele>
        <time>2025-11-20T15:59:42.108Z</time>
      </trkpt>
      <trkpt lat="44.25807" lon="0.88369">
        <ele>216</ele>
        <time>2025-11-20T15:59:50.108Z</time>
      </trkpt>
      <trkpt lat="44.25818" lon="0.88372">
        <ele>216</ele>
        <time>2025-11-20T15:59:58.108Z</time>
      </trkpt>
      <trkpt lat="44.25823" lon="0.88374">
        <ele>216</ele>
        <time>2025-11-20T16:00:02.108Z</time>
      </trkpt>
      <trkpt lat="44.25837" lon="0.8838">
        <ele>216</ele>
        <time>2025-11-20T16:00:14.108Z</time>
      </trkpt>
      <trkpt lat="44.25845" lon="0.88386">
        <ele>216</ele>
        <time>2025-11-20T16:00:22.108Z</time>
      </trkpt>
      <trkpt lat="44.25855" lon="0.88411">
        <ele>215.8</ele>
        <time>2025-11-20T16:00:38.108Z</time>
      </trkpt>
      <trkpt lat="44.25867" lon="0.88437">
        <ele>215.8</ele>
        <time>2025-11-20T16:00:54.108Z</time>
      </trkpt>
      <trkpt lat="44.2587" lon="0.88442">
        <ele>215.7</ele>
        <time>2025-11-20T16:00:58.108Z</time>
      </trkpt>
      <trkpt lat="44.2588" lon="0.88467">
        <ele>215.1</ele>
        <time>2025-11-20T16:01:14.108Z</time>
      </trkpt>
      <trkpt lat="44.25886" lon="0.88479">
        <ele>215.2</ele>
        <time>2025-11-20T16:01:22.108Z</time>
      </trkpt>
      <trkpt lat="44.2589" lon="0.88491">
        <ele>215.7</ele>
        <time>2025-11-20T16:01:30.108Z</time>
      </trkpt>
      <trkpt lat="44.25891" lon="0.88497">
        <ele>215.9</ele>
        <time>2025-11-20T16:01:34.108Z</time>
      </trkpt>
      <trkpt lat="44.25899" lon="0.88516">
        <ele>216</ele>
        <time>2025-11-20T16:01:46.108Z</time>
      </trkpt>
      <trkpt lat="44.25904" lon="0.88542">
        <ele>216</ele>
        <time>2025-11-20T16:02:02.108Z</time>
      </trkpt>
      <trkpt lat="44.25907" lon="0.88555">
        <ele>216</ele>
        <time>2025-11-20T16:02:08.108Z</time>
      </trkpt>
      <trkpt lat="44.25908" lon="0.88571">
        <ele>216</ele>
        <time>2025-11-20T16:02:24.108Z</time>
      </trkpt>
      <trkpt lat="44.25904" lon="0.88577">
        <ele>216</ele>
        <time>2025-11-20T16:02:48.108Z</time>
      </trkpt>
    </trkseg>
  </trk>
</gpx>